<?xml version="1.0" encoding="UTF-8" standalone="no" ?>
<gpx xmlns="http://www.topografix.com/GPX/1/1" xmlns:xsi="http://www.w3.org/2001/XMLSchema-instance" xsi:schemaLocation="http://www.topografix.com/GPX/1/1 http://www.topografix.com/GPX/1/1/gpx.xsd" version="1.1" creator="VisuGPX - https://www.visugpx.com">
  <metadata>
    <name>Circuit du Conquet</name>
    <desc><![CDATA[Une superbe randonnée sur le circuit du conquet qui offre de magnifiques points de vue sur les monts du Mercantour.]]></desc>
  </metadata>
  <trk>
    <name><![CDATA[8 Jan 2017, 11:25:26]]></name>
    <cmt><![CDATA[8 Jan 2017, 11:25:26]]></cmt>
    <trkseg>
      <trkpt lat="44.05368" lon="7.25264">
        <ele>1153</ele>
        <time>2017-01-08T10:25:27Z</time>
      </trkpt>
      <trkpt lat="44.05356" lon="7.25249">
        <ele>1163</ele>
        <time>2017-01-08T10:25:41Z</time>
      </trkpt>
      <trkpt lat="44.05355" lon="7.25241">
        <ele>1163</ele>
        <time>2017-01-08T10:25:59Z</time>
      </trkpt>
      <trkpt lat="44.05357" lon="7.25228">
        <ele>1165</ele>
        <time>2017-01-08T10:26:07Z</time>
      </trkpt>
      <trkpt lat="44.05361" lon="7.25215">
        <ele>1166</ele>
        <time>2017-01-08T10:26:18Z</time>
      </trkpt>
      <trkpt lat="44.05368" lon="7.25205">
        <ele>1167</ele>
        <time>2017-01-08T10:26:27Z</time>
      </trkpt>
      <trkpt lat="44.05365" lon="7.25198">
        <ele>1167</ele>
        <time>2017-01-08T10:26:37Z</time>
      </trkpt>
      <trkpt lat="44.05362" lon="7.25186">
        <ele>1167</ele>
        <time>2017-01-08T10:26:41Z</time>
      </trkpt>
      <trkpt lat="44.05363" lon="7.25171">
        <ele>1167</ele>
        <time>2017-01-08T10:26:47Z</time>
      </trkpt>
      <trkpt lat="44.05366" lon="7.25149">
        <ele>1166</ele>
        <time>2017-01-08T10:26:59Z</time>
      </trkpt>
      <trkpt lat="44.05367" lon="7.25096">
        <ele>1168</ele>
        <time>2017-01-08T10:27:34Z</time>
      </trkpt>
      <trkpt lat="44.0537" lon="7.25083">
        <ele>1170</ele>
        <time>2017-01-08T10:27:42Z</time>
      </trkpt>
      <trkpt lat="44.05369" lon="7.25071">
        <ele>1171</ele>
        <time>2017-01-08T10:27:49Z</time>
      </trkpt>
      <trkpt lat="44.0537" lon="7.25015">
        <ele>1174</ele>
        <time>2017-01-08T10:28:18Z</time>
      </trkpt>
      <trkpt lat="44.05375" lon="7.25004">
        <ele>1175</ele>
        <time>2017-01-08T10:28:25Z</time>
      </trkpt>
      <trkpt lat="44.05382" lon="7.24996">
        <ele>1176</ele>
        <time>2017-01-08T10:28:31Z</time>
      </trkpt>
      <trkpt lat="44.05384" lon="7.24984">
        <ele>1177</ele>
        <time>2017-01-08T10:28:37Z</time>
      </trkpt>
      <trkpt lat="44.05384" lon="7.2497">
        <ele>1177</ele>
        <time>2017-01-08T10:28:45Z</time>
      </trkpt>
      <trkpt lat="44.05385" lon="7.24931">
        <ele>1181</ele>
        <time>2017-01-08T10:29:07Z</time>
      </trkpt>
      <trkpt lat="44.05388" lon="7.24892">
        <ele>1184</ele>
        <time>2017-01-08T10:29:26Z</time>
      </trkpt>
      <trkpt lat="44.05383" lon="7.24841">
        <ele>1187</ele>
        <time>2017-01-08T10:29:59Z</time>
      </trkpt>
      <trkpt lat="44.05378" lon="7.24799">
        <ele>1190</ele>
        <time>2017-01-08T10:30:17Z</time>
      </trkpt>
      <trkpt lat="44.05379" lon="7.24786">
        <ele>1191</ele>
        <time>2017-01-08T10:30:25Z</time>
      </trkpt>
      <trkpt lat="44.05374" lon="7.24776">
        <ele>1192</ele>
        <time>2017-01-08T10:30:32Z</time>
      </trkpt>
      <trkpt lat="44.05371" lon="7.24764">
        <ele>1193</ele>
        <time>2017-01-08T10:30:46Z</time>
      </trkpt>
      <trkpt lat="44.05369" lon="7.24751">
        <ele>1192</ele>
        <time>2017-01-08T10:30:57Z</time>
      </trkpt>
      <trkpt lat="44.05352" lon="7.24704">
        <ele>1195</ele>
        <time>2017-01-08T10:31:24Z</time>
      </trkpt>
      <trkpt lat="44.05348" lon="7.2469">
        <ele>1196</ele>
        <time>2017-01-08T10:31:32Z</time>
      </trkpt>
      <trkpt lat="44.05347" lon="7.2467">
        <ele>1197</ele>
        <time>2017-01-08T10:31:44Z</time>
      </trkpt>
      <trkpt lat="44.05344" lon="7.24656">
        <ele>1197</ele>
        <time>2017-01-08T10:31:49Z</time>
      </trkpt>
      <trkpt lat="44.0534" lon="7.24641">
        <ele>1197</ele>
        <time>2017-01-08T10:31:53Z</time>
      </trkpt>
      <trkpt lat="44.05344" lon="7.24627">
        <ele>1198</ele>
        <time>2017-01-08T10:32:07Z</time>
      </trkpt>
      <trkpt lat="44.05345" lon="7.24614">
        <ele>1198</ele>
        <time>2017-01-08T10:32:14Z</time>
      </trkpt>
      <trkpt lat="44.05344" lon="7.24601">
        <ele>1198</ele>
        <time>2017-01-08T10:32:21Z</time>
      </trkpt>
      <trkpt lat="44.0535" lon="7.24602">
        <ele>1200</ele>
        <time>2017-01-08T10:32:40Z</time>
      </trkpt>
      <trkpt lat="44.05348" lon="7.24601">
        <ele>1205</ele>
        <time>2017-01-08T10:33:24Z</time>
      </trkpt>
      <trkpt lat="44.05348" lon="7.24606">
        <ele>1205</ele>
        <time>2017-01-08T10:33:56Z</time>
      </trkpt>
      <trkpt lat="44.05352" lon="7.24621">
        <ele>1205</ele>
        <time>2017-01-08T10:34:04Z</time>
      </trkpt>
      <trkpt lat="44.05352" lon="7.24628">
        <ele>1205</ele>
        <time>2017-01-08T10:34:09Z</time>
      </trkpt>
      <trkpt lat="44.05354" lon="7.24634">
        <ele>1205</ele>
        <time>2017-01-08T10:34:13Z</time>
      </trkpt>
      <trkpt lat="44.05354" lon="7.24647">
        <ele>1207</ele>
        <time>2017-01-08T10:34:20Z</time>
      </trkpt>
      <trkpt lat="44.05356" lon="7.24661">
        <ele>1208</ele>
        <time>2017-01-08T10:34:29Z</time>
      </trkpt>
      <trkpt lat="44.0536" lon="7.24672">
        <ele>1209</ele>
        <time>2017-01-08T10:34:37Z</time>
      </trkpt>
      <trkpt lat="44.05364" lon="7.24683">
        <ele>1211</ele>
        <time>2017-01-08T10:34:46Z</time>
      </trkpt>
      <trkpt lat="44.05372" lon="7.24691">
        <ele>1210</ele>
        <time>2017-01-08T10:34:53Z</time>
      </trkpt>
      <trkpt lat="44.05379" lon="7.247">
        <ele>1209</ele>
        <time>2017-01-08T10:35:02Z</time>
      </trkpt>
      <trkpt lat="44.05388" lon="7.24724">
        <ele>1210</ele>
        <time>2017-01-08T10:35:18Z</time>
      </trkpt>
      <trkpt lat="44.05394" lon="7.24733">
        <ele>1211</ele>
        <time>2017-01-08T10:35:24Z</time>
      </trkpt>
      <trkpt lat="44.05399" lon="7.24744">
        <ele>1210</ele>
        <time>2017-01-08T10:35:35Z</time>
      </trkpt>
      <trkpt lat="44.05411" lon="7.24782">
        <ele>1212</ele>
        <time>2017-01-08T10:36:02Z</time>
      </trkpt>
      <trkpt lat="44.05415" lon="7.2481">
        <ele>1217</ele>
        <time>2017-01-08T10:36:16Z</time>
      </trkpt>
      <trkpt lat="44.05421" lon="7.2482">
        <ele>1218</ele>
        <time>2017-01-08T10:36:22Z</time>
      </trkpt>
      <trkpt lat="44.05425" lon="7.24831">
        <ele>1217</ele>
        <time>2017-01-08T10:36:29Z</time>
      </trkpt>
      <trkpt lat="44.05427" lon="7.24844">
        <ele>1217</ele>
        <time>2017-01-08T10:36:37Z</time>
      </trkpt>
      <trkpt lat="44.05428" lon="7.24857">
        <ele>1216</ele>
        <time>2017-01-08T10:36:45Z</time>
      </trkpt>
      <trkpt lat="44.05426" lon="7.24871">
        <ele>1217</ele>
        <time>2017-01-08T10:36:54Z</time>
      </trkpt>
      <trkpt lat="44.05432" lon="7.24897">
        <ele>1217</ele>
        <time>2017-01-08T10:37:09Z</time>
      </trkpt>
      <trkpt lat="44.05437" lon="7.24952">
        <ele>1219</ele>
        <time>2017-01-08T10:37:39Z</time>
      </trkpt>
      <trkpt lat="44.0544" lon="7.24977">
        <ele>1220</ele>
        <time>2017-01-08T10:37:53Z</time>
      </trkpt>
      <trkpt lat="44.0544" lon="7.25018">
        <ele>1221</ele>
        <time>2017-01-08T10:38:17Z</time>
      </trkpt>
      <trkpt lat="44.05444" lon="7.2503">
        <ele>1220</ele>
        <time>2017-01-08T10:38:24Z</time>
      </trkpt>
      <trkpt lat="44.05446" lon="7.25042">
        <ele>1219</ele>
        <time>2017-01-08T10:38:31Z</time>
      </trkpt>
      <trkpt lat="44.05446" lon="7.25055">
        <ele>1220</ele>
        <time>2017-01-08T10:38:38Z</time>
      </trkpt>
      <trkpt lat="44.05452" lon="7.25051">
        <ele>1222</ele>
        <time>2017-01-08T10:38:59Z</time>
      </trkpt>
      <trkpt lat="44.05452" lon="7.25038">
        <ele>1223</ele>
        <time>2017-01-08T10:39:07Z</time>
      </trkpt>
      <trkpt lat="44.05454" lon="7.25024">
        <ele>1224</ele>
        <time>2017-01-08T10:39:14Z</time>
      </trkpt>
      <trkpt lat="44.05458" lon="7.25013">
        <ele>1224</ele>
        <time>2017-01-08T10:39:22Z</time>
      </trkpt>
      <trkpt lat="44.05463" lon="7.24972">
        <ele>1226</ele>
        <time>2017-01-08T10:39:45Z</time>
      </trkpt>
      <trkpt lat="44.05462" lon="7.24959">
        <ele>1227</ele>
        <time>2017-01-08T10:39:54Z</time>
      </trkpt>
      <trkpt lat="44.05465" lon="7.24947">
        <ele>1227</ele>
        <time>2017-01-08T10:40:32Z</time>
      </trkpt>
      <trkpt lat="44.05461" lon="7.24947">
        <ele>1231</ele>
        <time>2017-01-08T10:40:54Z</time>
      </trkpt>
      <trkpt lat="44.05465" lon="7.24957">
        <ele>1235</ele>
        <time>2017-01-08T10:43:07Z</time>
      </trkpt>
      <trkpt lat="44.05462" lon="7.24977">
        <ele>1240</ele>
        <time>2017-01-08T10:43:24Z</time>
      </trkpt>
      <trkpt lat="44.05466" lon="7.24988">
        <ele>1240</ele>
        <time>2017-01-08T10:43:35Z</time>
      </trkpt>
      <trkpt lat="44.05477" lon="7.24994">
        <ele>1241</ele>
        <time>2017-01-08T10:44:04Z</time>
      </trkpt>
      <trkpt lat="44.05474" lon="7.25006">
        <ele>1241</ele>
        <time>2017-01-08T10:44:13Z</time>
      </trkpt>
      <trkpt lat="44.05484" lon="7.25006">
        <ele>1242</ele>
        <time>2017-01-08T10:44:28Z</time>
      </trkpt>
      <trkpt lat="44.05487" lon="7.24994">
        <ele>1243</ele>
        <time>2017-01-08T10:44:40Z</time>
      </trkpt>
      <trkpt lat="44.05493" lon="7.24982">
        <ele>1243</ele>
        <time>2017-01-08T10:44:51Z</time>
      </trkpt>
      <trkpt lat="44.05497" lon="7.2497">
        <ele>1244</ele>
        <time>2017-01-08T10:45:01Z</time>
      </trkpt>
      <trkpt lat="44.05499" lon="7.24945">
        <ele>1249</ele>
        <time>2017-01-08T10:45:29Z</time>
      </trkpt>
      <trkpt lat="44.05499" lon="7.24932">
        <ele>1253</ele>
        <time>2017-01-08T10:45:37Z</time>
      </trkpt>
      <trkpt lat="44.05504" lon="7.24893">
        <ele>1258</ele>
        <time>2017-01-08T10:46:08Z</time>
      </trkpt>
      <trkpt lat="44.0551" lon="7.24868">
        <ele>1261</ele>
        <time>2017-01-08T10:46:35Z</time>
      </trkpt>
      <trkpt lat="44.05519" lon="7.24887">
        <ele>1266</ele>
        <time>2017-01-08T10:47:10Z</time>
      </trkpt>
      <trkpt lat="44.05521" lon="7.249">
        <ele>1268</ele>
        <time>2017-01-08T10:47:18Z</time>
      </trkpt>
      <trkpt lat="44.05526" lon="7.24912">
        <ele>1267</ele>
        <time>2017-01-08T10:47:25Z</time>
      </trkpt>
      <trkpt lat="44.05529" lon="7.24924">
        <ele>1268</ele>
        <time>2017-01-08T10:47:34Z</time>
      </trkpt>
      <trkpt lat="44.05536" lon="7.24906">
        <ele>1272</ele>
        <time>2017-01-08T10:48:12Z</time>
      </trkpt>
      <trkpt lat="44.0554" lon="7.24879">
        <ele>1281</ele>
        <time>2017-01-08T10:48:46Z</time>
      </trkpt>
      <trkpt lat="44.05548" lon="7.24856">
        <ele>1288</ele>
        <time>2017-01-08T10:49:13Z</time>
      </trkpt>
      <trkpt lat="44.0555" lon="7.2483">
        <ele>1291</ele>
        <time>2017-01-08T10:49:35Z</time>
      </trkpt>
      <trkpt lat="44.05552" lon="7.24815">
        <ele>1292</ele>
        <time>2017-01-08T10:49:44Z</time>
      </trkpt>
      <trkpt lat="44.05549" lon="7.24803">
        <ele>1294</ele>
        <time>2017-01-08T10:50:01Z</time>
      </trkpt>
      <trkpt lat="44.05539" lon="7.248">
        <ele>1297</ele>
        <time>2017-01-08T10:50:12Z</time>
      </trkpt>
      <trkpt lat="44.05547" lon="7.24795">
        <ele>1310</ele>
        <time>2017-01-08T10:51:31Z</time>
      </trkpt>
      <trkpt lat="44.05551" lon="7.24801">
        <ele>1309</ele>
        <time>2017-01-08T10:51:47Z</time>
      </trkpt>
      <trkpt lat="44.05555" lon="7.24806">
        <ele>1308</ele>
        <time>2017-01-08T10:51:52Z</time>
      </trkpt>
      <trkpt lat="44.05558" lon="7.24812">
        <ele>1307</ele>
        <time>2017-01-08T10:51:57Z</time>
      </trkpt>
      <trkpt lat="44.05558" lon="7.24822">
        <ele>1307</ele>
        <time>2017-01-08T10:52:20Z</time>
      </trkpt>
      <trkpt lat="44.05561" lon="7.24829">
        <ele>1307</ele>
        <time>2017-01-08T10:52:26Z</time>
      </trkpt>
      <trkpt lat="44.05563" lon="7.24805">
        <ele>1308</ele>
        <time>2017-01-08T10:53:46Z</time>
      </trkpt>
      <trkpt lat="44.05564" lon="7.24783">
        <ele>1314</ele>
        <time>2017-01-08T10:54:48Z</time>
      </trkpt>
      <trkpt lat="44.05564" lon="7.2477">
        <ele>1314</ele>
        <time>2017-01-08T10:55:08Z</time>
      </trkpt>
      <trkpt lat="44.05564" lon="7.24759">
        <ele>1316</ele>
        <time>2017-01-08T10:55:24Z</time>
      </trkpt>
      <trkpt lat="44.05562" lon="7.24746">
        <ele>1317</ele>
        <time>2017-01-08T10:55:31Z</time>
      </trkpt>
      <trkpt lat="44.05565" lon="7.24732">
        <ele>1317</ele>
        <time>2017-01-08T10:55:42Z</time>
      </trkpt>
      <trkpt lat="44.05564" lon="7.24726">
        <ele>1317</ele>
        <time>2017-01-08T10:55:47Z</time>
      </trkpt>
      <trkpt lat="44.05561" lon="7.24712">
        <ele>1319</ele>
        <time>2017-01-08T10:55:59Z</time>
      </trkpt>
      <trkpt lat="44.05572" lon="7.24724">
        <ele>1327</ele>
        <time>2017-01-08T10:58:25Z</time>
      </trkpt>
      <trkpt lat="44.05573" lon="7.24709">
        <ele>1328</ele>
        <time>2017-01-08T10:58:43Z</time>
      </trkpt>
      <trkpt lat="44.05581" lon="7.24716">
        <ele>1331</ele>
        <time>2017-01-08T10:59:02Z</time>
      </trkpt>
      <trkpt lat="44.05581" lon="7.24702">
        <ele>1338</ele>
        <time>2017-01-08T10:59:18Z</time>
      </trkpt>
      <trkpt lat="44.05576" lon="7.24691">
        <ele>1340</ele>
        <time>2017-01-08T10:59:29Z</time>
      </trkpt>
      <trkpt lat="44.05577" lon="7.24663">
        <ele>1346</ele>
        <time>2017-01-08T11:00:01Z</time>
      </trkpt>
      <trkpt lat="44.05582" lon="7.24651">
        <ele>1349</ele>
        <time>2017-01-08T11:00:37Z</time>
      </trkpt>
      <trkpt lat="44.05588" lon="7.24647">
        <ele>1357</ele>
        <time>2017-01-08T11:01:19Z</time>
      </trkpt>
      <trkpt lat="44.0559" lon="7.2464">
        <ele>1360</ele>
        <time>2017-01-08T11:02:23Z</time>
      </trkpt>
      <trkpt lat="44.05589" lon="7.24634">
        <ele>1360</ele>
        <time>2017-01-08T11:02:28Z</time>
      </trkpt>
      <trkpt lat="44.05587" lon="7.24628">
        <ele>1361</ele>
        <time>2017-01-08T11:02:34Z</time>
      </trkpt>
      <trkpt lat="44.05586" lon="7.24619">
        <ele>1362</ele>
        <time>2017-01-08T11:03:42Z</time>
      </trkpt>
      <trkpt lat="44.05587" lon="7.24612">
        <ele>1359</ele>
        <time>2017-01-08T11:04:41Z</time>
      </trkpt>
      <trkpt lat="44.05581" lon="7.24602">
        <ele>1356</ele>
        <time>2017-01-08T11:04:54Z</time>
      </trkpt>
      <trkpt lat="44.05572" lon="7.24601">
        <ele>1355</ele>
        <time>2017-01-08T11:05:06Z</time>
      </trkpt>
      <trkpt lat="44.05567" lon="7.24588">
        <ele>1355</ele>
        <time>2017-01-08T11:05:21Z</time>
      </trkpt>
      <trkpt lat="44.05569" lon="7.24576">
        <ele>1355</ele>
        <time>2017-01-08T11:05:37Z</time>
      </trkpt>
      <trkpt lat="44.05569" lon="7.24563">
        <ele>1353</ele>
        <time>2017-01-08T11:05:50Z</time>
      </trkpt>
      <trkpt lat="44.05562" lon="7.24553">
        <ele>1351</ele>
        <time>2017-01-08T11:06:08Z</time>
      </trkpt>
      <trkpt lat="44.05557" lon="7.24528">
        <ele>1350</ele>
        <time>2017-01-08T11:06:24Z</time>
      </trkpt>
      <trkpt lat="44.05558" lon="7.24515">
        <ele>1350</ele>
        <time>2017-01-08T11:06:43Z</time>
      </trkpt>
      <trkpt lat="44.0556" lon="7.24497">
        <ele>1351</ele>
        <time>2017-01-08T11:07:13Z</time>
      </trkpt>
      <trkpt lat="44.05563" lon="7.24486">
        <ele>1351</ele>
        <time>2017-01-08T11:07:23Z</time>
      </trkpt>
      <trkpt lat="44.05559" lon="7.24474">
        <ele>1351</ele>
        <time>2017-01-08T11:07:29Z</time>
      </trkpt>
      <trkpt lat="44.05559" lon="7.24461">
        <ele>1352</ele>
        <time>2017-01-08T11:07:36Z</time>
      </trkpt>
      <trkpt lat="44.05562" lon="7.24448">
        <ele>1353</ele>
        <time>2017-01-08T11:07:48Z</time>
      </trkpt>
      <trkpt lat="44.05559" lon="7.24435">
        <ele>1355</ele>
        <time>2017-01-08T11:08:03Z</time>
      </trkpt>
      <trkpt lat="44.05552" lon="7.24425">
        <ele>1355</ele>
        <time>2017-01-08T11:08:14Z</time>
      </trkpt>
      <trkpt lat="44.05549" lon="7.24413">
        <ele>1354</ele>
        <time>2017-01-08T11:08:25Z</time>
      </trkpt>
      <trkpt lat="44.05543" lon="7.24403">
        <ele>1353</ele>
        <time>2017-01-08T11:08:37Z</time>
      </trkpt>
      <trkpt lat="44.05539" lon="7.24367">
        <ele>1348</ele>
        <time>2017-01-08T11:09:11Z</time>
      </trkpt>
      <trkpt lat="44.05537" lon="7.24354">
        <ele>1345</ele>
        <time>2017-01-08T11:09:22Z</time>
      </trkpt>
      <trkpt lat="44.05545" lon="7.24336">
        <ele>1343</ele>
        <time>2017-01-08T11:10:08Z</time>
      </trkpt>
      <trkpt lat="44.05551" lon="7.24327">
        <ele>1344</ele>
        <time>2017-01-08T11:10:24Z</time>
      </trkpt>
      <trkpt lat="44.05556" lon="7.24315">
        <ele>1344</ele>
        <time>2017-01-08T11:10:35Z</time>
      </trkpt>
      <trkpt lat="44.05555" lon="7.24263">
        <ele>1351</ele>
        <time>2017-01-08T11:11:12Z</time>
      </trkpt>
      <trkpt lat="44.05556" lon="7.2425">
        <ele>1351</ele>
        <time>2017-01-08T11:11:23Z</time>
      </trkpt>
      <trkpt lat="44.05553" lon="7.24236">
        <ele>1350</ele>
        <time>2017-01-08T11:11:31Z</time>
      </trkpt>
      <trkpt lat="44.05556" lon="7.24208">
        <ele>1347</ele>
        <time>2017-01-08T11:11:49Z</time>
      </trkpt>
      <trkpt lat="44.05561" lon="7.24188">
        <ele>1346</ele>
        <time>2017-01-08T11:12:04Z</time>
      </trkpt>
      <trkpt lat="44.0556" lon="7.24181">
        <ele>1345</ele>
        <time>2017-01-08T11:12:09Z</time>
      </trkpt>
      <trkpt lat="44.05559" lon="7.24175">
        <ele>1344</ele>
        <time>2017-01-08T11:12:17Z</time>
      </trkpt>
      <trkpt lat="44.05563" lon="7.24148">
        <ele>1342</ele>
        <time>2017-01-08T11:12:37Z</time>
      </trkpt>
      <trkpt lat="44.05561" lon="7.24142">
        <ele>1341</ele>
        <time>2017-01-08T11:12:42Z</time>
      </trkpt>
      <trkpt lat="44.0556" lon="7.24135">
        <ele>1341</ele>
        <time>2017-01-08T11:12:46Z</time>
      </trkpt>
      <trkpt lat="44.05561" lon="7.24129">
        <ele>1341</ele>
        <time>2017-01-08T11:12:50Z</time>
      </trkpt>
      <trkpt lat="44.05562" lon="7.24121">
        <ele>1341</ele>
        <time>2017-01-08T11:12:56Z</time>
      </trkpt>
      <trkpt lat="44.05562" lon="7.24101">
        <ele>1340</ele>
        <time>2017-01-08T11:13:08Z</time>
      </trkpt>
      <trkpt lat="44.0556" lon="7.24095">
        <ele>1341</ele>
        <time>2017-01-08T11:13:13Z</time>
      </trkpt>
      <trkpt lat="44.05557" lon="7.24081">
        <ele>1341</ele>
        <time>2017-01-08T11:13:21Z</time>
      </trkpt>
      <trkpt lat="44.0556" lon="7.24076">
        <ele>1341</ele>
        <time>2017-01-08T11:13:25Z</time>
      </trkpt>
      <trkpt lat="44.05565" lon="7.24073">
        <ele>1341</ele>
        <time>2017-01-08T11:13:29Z</time>
      </trkpt>
      <trkpt lat="44.05563" lon="7.2406">
        <ele>1341</ele>
        <time>2017-01-08T11:13:37Z</time>
      </trkpt>
      <trkpt lat="44.05559" lon="7.24048">
        <ele>1340</ele>
        <time>2017-01-08T11:13:44Z</time>
      </trkpt>
      <trkpt lat="44.05564" lon="7.24038">
        <ele>1340</ele>
        <time>2017-01-08T11:13:56Z</time>
      </trkpt>
      <trkpt lat="44.05565" lon="7.24025">
        <ele>1341</ele>
        <time>2017-01-08T11:14:06Z</time>
      </trkpt>
      <trkpt lat="44.05573" lon="7.24019">
        <ele>1344</ele>
        <time>2017-01-08T11:14:24Z</time>
      </trkpt>
      <trkpt lat="44.05572" lon="7.24005">
        <ele>1344</ele>
        <time>2017-01-08T11:14:57Z</time>
      </trkpt>
      <trkpt lat="44.05571" lon="7.23992">
        <ele>1347</ele>
        <time>2017-01-08T11:15:09Z</time>
      </trkpt>
      <trkpt lat="44.05567" lon="7.23979">
        <ele>1348</ele>
        <time>2017-01-08T11:15:17Z</time>
      </trkpt>
      <trkpt lat="44.05567" lon="7.23966">
        <ele>1349</ele>
        <time>2017-01-08T11:15:26Z</time>
      </trkpt>
      <trkpt lat="44.05566" lon="7.23952">
        <ele>1348</ele>
        <time>2017-01-08T11:15:33Z</time>
      </trkpt>
      <trkpt lat="44.05565" lon="7.23926">
        <ele>1350</ele>
        <time>2017-01-08T11:15:52Z</time>
      </trkpt>
      <trkpt lat="44.0557" lon="7.23887">
        <ele>1355</ele>
        <time>2017-01-08T11:16:23Z</time>
      </trkpt>
      <trkpt lat="44.05572" lon="7.23875">
        <ele>1355</ele>
        <time>2017-01-08T11:16:31Z</time>
      </trkpt>
      <trkpt lat="44.05573" lon="7.23849">
        <ele>1357</ele>
        <time>2017-01-08T11:16:52Z</time>
      </trkpt>
      <trkpt lat="44.05574" lon="7.23836">
        <ele>1357</ele>
        <time>2017-01-08T11:17:02Z</time>
      </trkpt>
      <trkpt lat="44.05574" lon="7.23822">
        <ele>1357</ele>
        <time>2017-01-08T11:17:11Z</time>
      </trkpt>
      <trkpt lat="44.05576" lon="7.23815">
        <ele>1357</ele>
        <time>2017-01-08T11:17:17Z</time>
      </trkpt>
      <trkpt lat="44.05575" lon="7.23809">
        <ele>1358</ele>
        <time>2017-01-08T11:17:23Z</time>
      </trkpt>
      <trkpt lat="44.05578" lon="7.23801">
        <ele>1359</ele>
        <time>2017-01-08T11:17:39Z</time>
      </trkpt>
      <trkpt lat="44.05579" lon="7.23793">
        <ele>1359</ele>
        <time>2017-01-08T11:17:44Z</time>
      </trkpt>
      <trkpt lat="44.05579" lon="7.23757">
        <ele>1360</ele>
        <time>2017-01-08T11:18:03Z</time>
      </trkpt>
      <trkpt lat="44.0558" lon="7.2375">
        <ele>1361</ele>
        <time>2017-01-08T11:18:10Z</time>
      </trkpt>
      <trkpt lat="44.0558" lon="7.23736">
        <ele>1362</ele>
        <time>2017-01-08T11:18:19Z</time>
      </trkpt>
      <trkpt lat="44.05578" lon="7.23729">
        <ele>1362</ele>
        <time>2017-01-08T11:18:24Z</time>
      </trkpt>
      <trkpt lat="44.05572" lon="7.23711">
        <ele>1366</ele>
        <time>2017-01-08T11:18:35Z</time>
      </trkpt>
      <trkpt lat="44.05567" lon="7.23684">
        <ele>1369</ele>
        <time>2017-01-08T11:18:55Z</time>
      </trkpt>
      <trkpt lat="44.05565" lon="7.2367">
        <ele>1369</ele>
        <time>2017-01-08T11:19:03Z</time>
      </trkpt>
      <trkpt lat="44.05566" lon="7.23657">
        <ele>1371</ele>
        <time>2017-01-08T11:19:15Z</time>
      </trkpt>
      <trkpt lat="44.0556" lon="7.23619">
        <ele>1373</ele>
        <time>2017-01-08T11:19:40Z</time>
      </trkpt>
      <trkpt lat="44.05555" lon="7.23607">
        <ele>1373</ele>
        <time>2017-01-08T11:19:49Z</time>
      </trkpt>
      <trkpt lat="44.05558" lon="7.23587">
        <ele>1377</ele>
        <time>2017-01-08T11:20:12Z</time>
      </trkpt>
      <trkpt lat="44.05546" lon="7.23549">
        <ele>1379</ele>
        <time>2017-01-08T11:20:40Z</time>
      </trkpt>
      <trkpt lat="44.05543" lon="7.23535">
        <ele>1389</ele>
        <time>2017-01-08T11:21:37Z</time>
      </trkpt>
      <trkpt lat="44.05538" lon="7.23523">
        <ele>1389</ele>
        <time>2017-01-08T11:21:46Z</time>
      </trkpt>
      <trkpt lat="44.05527" lon="7.23502">
        <ele>1387</ele>
        <time>2017-01-08T11:22:07Z</time>
      </trkpt>
      <trkpt lat="44.05524" lon="7.2349">
        <ele>1388</ele>
        <time>2017-01-08T11:22:17Z</time>
      </trkpt>
      <trkpt lat="44.05519" lon="7.23479">
        <ele>1389</ele>
        <time>2017-01-08T11:22:26Z</time>
      </trkpt>
      <trkpt lat="44.05518" lon="7.23465">
        <ele>1392</ele>
        <time>2017-01-08T11:22:36Z</time>
      </trkpt>
      <trkpt lat="44.05517" lon="7.23438">
        <ele>1394</ele>
        <time>2017-01-08T11:22:53Z</time>
      </trkpt>
      <trkpt lat="44.05513" lon="7.2341">
        <ele>1394</ele>
        <time>2017-01-08T11:23:10Z</time>
      </trkpt>
      <trkpt lat="44.05509" lon="7.23408">
        <ele>1393</ele>
        <time>2017-01-08T11:23:37Z</time>
      </trkpt>
      <trkpt lat="44.05508" lon="7.23416">
        <ele>1392</ele>
        <time>2017-01-08T11:24:07Z</time>
      </trkpt>
      <trkpt lat="44.05503" lon="7.23427">
        <ele>1392</ele>
        <time>2017-01-08T11:24:17Z</time>
      </trkpt>
      <trkpt lat="44.05499" lon="7.2344">
        <ele>1392</ele>
        <time>2017-01-08T11:24:26Z</time>
      </trkpt>
      <trkpt lat="44.05495" lon="7.23443">
        <ele>1392</ele>
        <time>2017-01-08T11:24:32Z</time>
      </trkpt>
      <trkpt lat="44.05493" lon="7.23437">
        <ele>1393</ele>
        <time>2017-01-08T11:24:37Z</time>
      </trkpt>
      <trkpt lat="44.05487" lon="7.23427">
        <ele>1393</ele>
        <time>2017-01-08T11:24:43Z</time>
      </trkpt>
      <trkpt lat="44.05486" lon="7.23418">
        <ele>1393</ele>
        <time>2017-01-08T11:24:50Z</time>
      </trkpt>
      <trkpt lat="44.05488" lon="7.23412">
        <ele>1394</ele>
        <time>2017-01-08T11:24:54Z</time>
      </trkpt>
      <trkpt lat="44.05485" lon="7.23406">
        <ele>1395</ele>
        <time>2017-01-08T11:25:00Z</time>
      </trkpt>
      <trkpt lat="44.05483" lon="7.234">
        <ele>1397</ele>
        <time>2017-01-08T11:25:09Z</time>
      </trkpt>
      <trkpt lat="44.05475" lon="7.23396">
        <ele>1400</ele>
        <time>2017-01-08T11:25:22Z</time>
      </trkpt>
      <trkpt lat="44.05465" lon="7.23374">
        <ele>1404</ele>
        <time>2017-01-08T11:25:46Z</time>
      </trkpt>
      <trkpt lat="44.05445" lon="7.23323">
        <ele>1417</ele>
        <time>2017-01-08T11:26:46Z</time>
      </trkpt>
      <trkpt lat="44.0544" lon="7.23311">
        <ele>1423</ele>
        <time>2017-01-08T11:27:06Z</time>
      </trkpt>
      <trkpt lat="44.05437" lon="7.23298">
        <ele>1423</ele>
        <time>2017-01-08T11:27:19Z</time>
      </trkpt>
      <trkpt lat="44.05435" lon="7.23285">
        <ele>1425</ele>
        <time>2017-01-08T11:27:25Z</time>
      </trkpt>
      <trkpt lat="44.05425" lon="7.23262">
        <ele>1430</ele>
        <time>2017-01-08T11:27:48Z</time>
      </trkpt>
      <trkpt lat="44.05424" lon="7.23248">
        <ele>1430</ele>
        <time>2017-01-08T11:27:54Z</time>
      </trkpt>
      <trkpt lat="44.05425" lon="7.23232">
        <ele>1433</ele>
        <time>2017-01-08T11:28:12Z</time>
      </trkpt>
      <trkpt lat="44.05422" lon="7.23219">
        <ele>1435</ele>
        <time>2017-01-08T11:28:19Z</time>
      </trkpt>
      <trkpt lat="44.05416" lon="7.23208">
        <ele>1440</ele>
        <time>2017-01-08T11:28:37Z</time>
      </trkpt>
      <trkpt lat="44.05421" lon="7.23196">
        <ele>1441</ele>
        <time>2017-01-08T11:28:45Z</time>
      </trkpt>
      <trkpt lat="44.05419" lon="7.23184">
        <ele>1443</ele>
        <time>2017-01-08T11:28:53Z</time>
      </trkpt>
      <trkpt lat="44.05414" lon="7.23173">
        <ele>1444</ele>
        <time>2017-01-08T11:29:05Z</time>
      </trkpt>
      <trkpt lat="44.05412" lon="7.23161">
        <ele>1450</ele>
        <time>2017-01-08T11:29:21Z</time>
      </trkpt>
      <trkpt lat="44.0541" lon="7.23146">
        <ele>1451</ele>
        <time>2017-01-08T11:29:26Z</time>
      </trkpt>
      <trkpt lat="44.05422" lon="7.23124">
        <ele>1455</ele>
        <time>2017-01-08T11:29:42Z</time>
      </trkpt>
      <trkpt lat="44.05405" lon="7.23087">
        <ele>1460</ele>
        <time>2017-01-08T11:30:14Z</time>
      </trkpt>
      <trkpt lat="44.05404" lon="7.23074">
        <ele>1462</ele>
        <time>2017-01-08T11:30:22Z</time>
      </trkpt>
      <trkpt lat="44.05401" lon="7.23062">
        <ele>1464</ele>
        <time>2017-01-08T11:30:37Z</time>
      </trkpt>
      <trkpt lat="44.054" lon="7.23048">
        <ele>1467</ele>
        <time>2017-01-08T11:30:54Z</time>
      </trkpt>
      <trkpt lat="44.05419" lon="7.23025">
        <ele>1470</ele>
        <time>2017-01-08T11:31:18Z</time>
      </trkpt>
      <trkpt lat="44.05421" lon="7.23013">
        <ele>1472</ele>
        <time>2017-01-08T11:31:27Z</time>
      </trkpt>
      <trkpt lat="44.05419" lon="7.23004">
        <ele>1483</ele>
        <time>2017-01-08T11:33:37Z</time>
      </trkpt>
      <trkpt lat="44.05422" lon="7.23007">
        <ele>1493</ele>
        <time>2017-01-08T11:38:04Z</time>
      </trkpt>
      <trkpt lat="44.05428" lon="7.22995">
        <ele>1493</ele>
        <time>2017-01-08T11:38:20Z</time>
      </trkpt>
      <trkpt lat="44.05434" lon="7.22986">
        <ele>1494</ele>
        <time>2017-01-08T11:38:32Z</time>
      </trkpt>
      <trkpt lat="44.05436" lon="7.22973">
        <ele>1495</ele>
        <time>2017-01-08T11:38:47Z</time>
      </trkpt>
      <trkpt lat="44.05446" lon="7.22954">
        <ele>1495</ele>
        <time>2017-01-08T11:39:15Z</time>
      </trkpt>
      <trkpt lat="44.05459" lon="7.22936">
        <ele>1500</ele>
        <time>2017-01-08T11:39:30Z</time>
      </trkpt>
      <trkpt lat="44.05467" lon="7.22929">
        <ele>1501</ele>
        <time>2017-01-08T11:39:45Z</time>
      </trkpt>
      <trkpt lat="44.05473" lon="7.2292">
        <ele>1503</ele>
        <time>2017-01-08T11:40:00Z</time>
      </trkpt>
      <trkpt lat="44.05481" lon="7.2291">
        <ele>1507</ele>
        <time>2017-01-08T11:40:14Z</time>
      </trkpt>
      <trkpt lat="44.05489" lon="7.22903">
        <ele>1508</ele>
        <time>2017-01-08T11:40:23Z</time>
      </trkpt>
      <trkpt lat="44.0549" lon="7.22877">
        <ele>1509</ele>
        <time>2017-01-08T11:40:47Z</time>
      </trkpt>
      <trkpt lat="44.05497" lon="7.22868">
        <ele>1510</ele>
        <time>2017-01-08T11:40:56Z</time>
      </trkpt>
      <trkpt lat="44.05516" lon="7.22862">
        <ele>1512</ele>
        <time>2017-01-08T11:41:17Z</time>
      </trkpt>
      <trkpt lat="44.05525" lon="7.22868">
        <ele>1512</ele>
        <time>2017-01-08T11:41:27Z</time>
      </trkpt>
      <trkpt lat="44.05534" lon="7.22865">
        <ele>1514</ele>
        <time>2017-01-08T11:41:34Z</time>
      </trkpt>
      <trkpt lat="44.05535" lon="7.22853">
        <ele>1514</ele>
        <time>2017-01-08T11:41:45Z</time>
      </trkpt>
      <trkpt lat="44.05526" lon="7.22848">
        <ele>1515</ele>
        <time>2017-01-08T11:41:55Z</time>
      </trkpt>
      <trkpt lat="44.05522" lon="7.22833">
        <ele>1524</ele>
        <time>2017-01-08T11:42:35Z</time>
      </trkpt>
      <trkpt lat="44.05532" lon="7.2282">
        <ele>1527</ele>
        <time>2017-01-08T11:43:41Z</time>
      </trkpt>
      <trkpt lat="44.05523" lon="7.2281">
        <ele>1528</ele>
        <time>2017-01-08T11:44:01Z</time>
      </trkpt>
      <trkpt lat="44.05522" lon="7.22806">
        <ele>1533</ele>
        <time>2017-01-08T11:45:26Z</time>
      </trkpt>
      <trkpt lat="44.05517" lon="7.22805">
        <ele>1534</ele>
        <time>2017-01-08T11:45:30Z</time>
      </trkpt>
      <trkpt lat="44.05504" lon="7.22796">
        <ele>1536</ele>
        <time>2017-01-08T11:45:50Z</time>
      </trkpt>
      <trkpt lat="44.05496" lon="7.22788">
        <ele>1537</ele>
        <time>2017-01-08T11:47:06Z</time>
      </trkpt>
      <trkpt lat="44.05497" lon="7.22783">
        <ele>1536</ele>
        <time>2017-01-08T11:47:18Z</time>
      </trkpt>
      <trkpt lat="44.05506" lon="7.22788">
        <ele>1538</ele>
        <time>2017-01-08T11:47:26Z</time>
      </trkpt>
      <trkpt lat="44.0551" lon="7.22776">
        <ele>1538</ele>
        <time>2017-01-08T11:47:45Z</time>
      </trkpt>
      <trkpt lat="44.05502" lon="7.22771">
        <ele>1538</ele>
        <time>2017-01-08T11:47:52Z</time>
      </trkpt>
      <trkpt lat="44.05497" lon="7.2275">
        <ele>1543</ele>
        <time>2017-01-08T11:48:24Z</time>
      </trkpt>
      <trkpt lat="44.055" lon="7.22738">
        <ele>1546</ele>
        <time>2017-01-08T11:48:36Z</time>
      </trkpt>
      <trkpt lat="44.05496" lon="7.22714">
        <ele>1549</ele>
        <time>2017-01-08T11:49:04Z</time>
      </trkpt>
      <trkpt lat="44.05492" lon="7.22702">
        <ele>1551</ele>
        <time>2017-01-08T11:49:16Z</time>
      </trkpt>
      <trkpt lat="44.05484" lon="7.22681">
        <ele>1554</ele>
        <time>2017-01-08T11:49:52Z</time>
      </trkpt>
      <trkpt lat="44.05465" lon="7.2268">
        <ele>1557</ele>
        <time>2017-01-08T11:50:14Z</time>
      </trkpt>
      <trkpt lat="44.05457" lon="7.22674">
        <ele>1557</ele>
        <time>2017-01-08T11:50:24Z</time>
      </trkpt>
      <trkpt lat="44.05453" lon="7.22657">
        <ele>1559</ele>
        <time>2017-01-08T11:50:52Z</time>
      </trkpt>
      <trkpt lat="44.05448" lon="7.22646">
        <ele>1562</ele>
        <time>2017-01-08T11:51:05Z</time>
      </trkpt>
      <trkpt lat="44.05441" lon="7.22638">
        <ele>1566</ele>
        <time>2017-01-08T11:51:18Z</time>
      </trkpt>
      <trkpt lat="44.05432" lon="7.22638">
        <ele>1568</ele>
        <time>2017-01-08T11:51:29Z</time>
      </trkpt>
      <trkpt lat="44.05432" lon="7.22637">
        <ele>1578</ele>
        <time>2017-01-08T11:52:22Z</time>
      </trkpt>
      <trkpt lat="44.05422" lon="7.22625">
        <ele>1579</ele>
        <time>2017-01-08T11:53:04Z</time>
      </trkpt>
      <trkpt lat="44.05416" lon="7.22612">
        <ele>1583</ele>
        <time>2017-01-08T11:53:23Z</time>
      </trkpt>
      <trkpt lat="44.05407" lon="7.2259">
        <ele>1590</ele>
        <time>2017-01-08T11:53:46Z</time>
      </trkpt>
      <trkpt lat="44.05402" lon="7.22579">
        <ele>1591</ele>
        <time>2017-01-08T11:53:55Z</time>
      </trkpt>
      <trkpt lat="44.05396" lon="7.22554">
        <ele>1596</ele>
        <time>2017-01-08T11:54:19Z</time>
      </trkpt>
      <trkpt lat="44.05389" lon="7.22542">
        <ele>1600</ele>
        <time>2017-01-08T11:55:02Z</time>
      </trkpt>
      <trkpt lat="44.05386" lon="7.22537">
        <ele>1601</ele>
        <time>2017-01-08T11:55:06Z</time>
      </trkpt>
      <trkpt lat="44.05385" lon="7.22531">
        <ele>1605</ele>
        <time>2017-01-08T11:55:46Z</time>
      </trkpt>
      <trkpt lat="44.05387" lon="7.22524">
        <ele>1606</ele>
        <time>2017-01-08T11:56:55Z</time>
      </trkpt>
      <trkpt lat="44.05394" lon="7.22524">
        <ele>1607</ele>
        <time>2017-01-08T11:57:21Z</time>
      </trkpt>
      <trkpt lat="44.05398" lon="7.2252">
        <ele>1609</ele>
        <time>2017-01-08T11:57:28Z</time>
      </trkpt>
      <trkpt lat="44.05405" lon="7.2252">
        <ele>1614</ele>
        <time>2017-01-08T11:58:10Z</time>
      </trkpt>
      <trkpt lat="44.0541" lon="7.2252">
        <ele>1617</ele>
        <time>2017-01-08T11:58:14Z</time>
      </trkpt>
      <trkpt lat="44.05419" lon="7.22515">
        <ele>1621</ele>
        <time>2017-01-08T11:58:24Z</time>
      </trkpt>
      <trkpt lat="44.05421" lon="7.22502">
        <ele>1622</ele>
        <time>2017-01-08T11:58:37Z</time>
      </trkpt>
      <trkpt lat="44.05426" lon="7.22488">
        <ele>1621</ele>
        <time>2017-01-08T11:58:58Z</time>
      </trkpt>
      <trkpt lat="44.05428" lon="7.22476">
        <ele>1620</ele>
        <time>2017-01-08T11:59:09Z</time>
      </trkpt>
      <trkpt lat="44.05431" lon="7.22464">
        <ele>1622</ele>
        <time>2017-01-08T11:59:23Z</time>
      </trkpt>
      <trkpt lat="44.05453" lon="7.2246">
        <ele>1632</ele>
        <time>2017-01-08T12:00:01Z</time>
      </trkpt>
      <trkpt lat="44.05457" lon="7.22448">
        <ele>1634</ele>
        <time>2017-01-08T12:00:17Z</time>
      </trkpt>
      <trkpt lat="44.05464" lon="7.2244">
        <ele>1638</ele>
        <time>2017-01-08T12:00:34Z</time>
      </trkpt>
      <trkpt lat="44.05474" lon="7.22437">
        <ele>1641</ele>
        <time>2017-01-08T12:01:02Z</time>
      </trkpt>
      <trkpt lat="44.05479" lon="7.22438">
        <ele>1646</ele>
        <time>2017-01-08T12:02:13Z</time>
      </trkpt>
      <trkpt lat="44.05482" lon="7.22443">
        <ele>1646</ele>
        <time>2017-01-08T12:02:21Z</time>
      </trkpt>
      <trkpt lat="44.0548" lon="7.22443">
        <ele>1645</ele>
        <time>2017-01-08T12:03:27Z</time>
      </trkpt>
      <trkpt lat="44.05474" lon="7.22443">
        <ele>1648</ele>
        <time>2017-01-08T12:04:20Z</time>
      </trkpt>
      <trkpt lat="44.05475" lon="7.22451">
        <ele>1648</ele>
        <time>2017-01-08T12:04:26Z</time>
      </trkpt>
      <trkpt lat="44.05479" lon="7.22453">
        <ele>1648</ele>
        <time>2017-01-08T12:04:30Z</time>
      </trkpt>
      <trkpt lat="44.05485" lon="7.22449">
        <ele>1648</ele>
        <time>2017-01-08T12:04:34Z</time>
      </trkpt>
      <trkpt lat="44.05494" lon="7.22447">
        <ele>1645</ele>
        <time>2017-01-08T12:04:45Z</time>
      </trkpt>
      <trkpt lat="44.05496" lon="7.22455">
        <ele>1644</ele>
        <time>2017-01-08T12:05:12Z</time>
      </trkpt>
      <trkpt lat="44.05502" lon="7.22442">
        <ele>1642</ele>
        <time>2017-01-08T12:05:37Z</time>
      </trkpt>
      <trkpt lat="44.05507" lon="7.22438">
        <ele>1643</ele>
        <time>2017-01-08T12:05:43Z</time>
      </trkpt>
      <trkpt lat="44.05512" lon="7.22436">
        <ele>1644</ele>
        <time>2017-01-08T12:05:50Z</time>
      </trkpt>
      <trkpt lat="44.05516" lon="7.22432">
        <ele>1644</ele>
        <time>2017-01-08T12:05:57Z</time>
      </trkpt>
      <trkpt lat="44.0552" lon="7.22429">
        <ele>1645</ele>
        <time>2017-01-08T12:06:35Z</time>
      </trkpt>
      <trkpt lat="44.0553" lon="7.22424">
        <ele>1646</ele>
        <time>2017-01-08T12:06:44Z</time>
      </trkpt>
      <trkpt lat="44.05532" lon="7.22418">
        <ele>1648</ele>
        <time>2017-01-08T12:07:12Z</time>
      </trkpt>
      <trkpt lat="44.05541" lon="7.22413">
        <ele>1649</ele>
        <time>2017-01-08T12:07:31Z</time>
      </trkpt>
      <trkpt lat="44.05549" lon="7.22407">
        <ele>1654</ele>
        <time>2017-01-08T12:07:42Z</time>
      </trkpt>
      <trkpt lat="44.05558" lon="7.22406">
        <ele>1656</ele>
        <time>2017-01-08T12:08:03Z</time>
      </trkpt>
      <trkpt lat="44.05567" lon="7.22408">
        <ele>1659</ele>
        <time>2017-01-08T12:08:13Z</time>
      </trkpt>
      <trkpt lat="44.05584" lon="7.22401">
        <ele>1658</ele>
        <time>2017-01-08T12:08:36Z</time>
      </trkpt>
      <trkpt lat="44.05593" lon="7.22397">
        <ele>1658</ele>
        <time>2017-01-08T12:08:47Z</time>
      </trkpt>
      <trkpt lat="44.05604" lon="7.22398">
        <ele>1660</ele>
        <time>2017-01-08T12:09:05Z</time>
      </trkpt>
      <trkpt lat="44.05614" lon="7.22397">
        <ele>1662</ele>
        <time>2017-01-08T12:09:16Z</time>
      </trkpt>
      <trkpt lat="44.05623" lon="7.22401">
        <ele>1664</ele>
        <time>2017-01-08T12:09:25Z</time>
      </trkpt>
      <trkpt lat="44.05621" lon="7.22404">
        <ele>1674</ele>
        <time>2017-01-08T12:10:42Z</time>
      </trkpt>
      <trkpt lat="44.05622" lon="7.22419">
        <ele>1683</ele>
        <time>2017-01-08T12:12:37Z</time>
      </trkpt>
      <trkpt lat="44.05629" lon="7.22411">
        <ele>1683</ele>
        <time>2017-01-08T12:12:43Z</time>
      </trkpt>
      <trkpt lat="44.05638" lon="7.22406">
        <ele>1685</ele>
        <time>2017-01-08T12:13:44Z</time>
      </trkpt>
      <trkpt lat="44.0565" lon="7.22412">
        <ele>1686</ele>
        <time>2017-01-08T12:14:03Z</time>
      </trkpt>
      <trkpt lat="44.05659" lon="7.22413">
        <ele>1684</ele>
        <time>2017-01-08T12:14:13Z</time>
      </trkpt>
      <trkpt lat="44.05669" lon="7.22418">
        <ele>1683</ele>
        <time>2017-01-08T12:14:21Z</time>
      </trkpt>
      <trkpt lat="44.05678" lon="7.2242">
        <ele>1683</ele>
        <time>2017-01-08T12:14:27Z</time>
      </trkpt>
      <trkpt lat="44.05687" lon="7.22421">
        <ele>1683</ele>
        <time>2017-01-08T12:14:34Z</time>
      </trkpt>
      <trkpt lat="44.05696" lon="7.22425">
        <ele>1684</ele>
        <time>2017-01-08T12:14:43Z</time>
      </trkpt>
      <trkpt lat="44.05711" lon="7.22441">
        <ele>1684</ele>
        <time>2017-01-08T12:14:55Z</time>
      </trkpt>
      <trkpt lat="44.05721" lon="7.22441">
        <ele>1684</ele>
        <time>2017-01-08T12:15:06Z</time>
      </trkpt>
      <trkpt lat="44.0573" lon="7.22448">
        <ele>1684</ele>
        <time>2017-01-08T12:15:16Z</time>
      </trkpt>
      <trkpt lat="44.05737" lon="7.22457">
        <ele>1684</ele>
        <time>2017-01-08T12:15:25Z</time>
      </trkpt>
      <trkpt lat="44.05745" lon="7.22463">
        <ele>1684</ele>
        <time>2017-01-08T12:15:33Z</time>
      </trkpt>
      <trkpt lat="44.05754" lon="7.22468">
        <ele>1684</ele>
        <time>2017-01-08T12:15:43Z</time>
      </trkpt>
      <trkpt lat="44.05763" lon="7.22471">
        <ele>1684</ele>
        <time>2017-01-08T12:15:50Z</time>
      </trkpt>
      <trkpt lat="44.0577" lon="7.22478">
        <ele>1684</ele>
        <time>2017-01-08T12:15:58Z</time>
      </trkpt>
      <trkpt lat="44.05791" lon="7.22505">
        <ele>1682</ele>
        <time>2017-01-08T12:16:21Z</time>
      </trkpt>
      <trkpt lat="44.05793" lon="7.22514">
        <ele>1682</ele>
        <time>2017-01-08T12:16:49Z</time>
      </trkpt>
      <trkpt lat="44.05797" lon="7.22517">
        <ele>1683</ele>
        <time>2017-01-08T12:17:12Z</time>
      </trkpt>
      <trkpt lat="44.05807" lon="7.22521">
        <ele>1683</ele>
        <time>2017-01-08T12:17:19Z</time>
      </trkpt>
      <trkpt lat="44.05813" lon="7.22522">
        <ele>1683</ele>
        <time>2017-01-08T12:17:22Z</time>
      </trkpt>
      <trkpt lat="44.05822" lon="7.22526">
        <ele>1683</ele>
        <time>2017-01-08T12:17:30Z</time>
      </trkpt>
      <trkpt lat="44.05829" lon="7.22536">
        <ele>1684</ele>
        <time>2017-01-08T12:17:42Z</time>
      </trkpt>
      <trkpt lat="44.05833" lon="7.22539">
        <ele>1685</ele>
        <time>2017-01-08T12:17:50Z</time>
      </trkpt>
      <trkpt lat="44.05838" lon="7.22554">
        <ele>1684</ele>
        <time>2017-01-08T12:18:07Z</time>
      </trkpt>
      <trkpt lat="44.05843" lon="7.22558">
        <ele>1684</ele>
        <time>2017-01-08T12:18:20Z</time>
      </trkpt>
      <trkpt lat="44.05847" lon="7.22559">
        <ele>1684</ele>
        <time>2017-01-08T12:18:28Z</time>
      </trkpt>
      <trkpt lat="44.05852" lon="7.22559">
        <ele>1685</ele>
        <time>2017-01-08T12:18:34Z</time>
      </trkpt>
      <trkpt lat="44.05856" lon="7.22569">
        <ele>1686</ele>
        <time>2017-01-08T12:20:03Z</time>
      </trkpt>
      <trkpt lat="44.05858" lon="7.22575">
        <ele>1684</ele>
        <time>2017-01-08T12:20:07Z</time>
      </trkpt>
      <trkpt lat="44.05879" lon="7.22621">
        <ele>1681</ele>
        <time>2017-01-08T12:20:28Z</time>
      </trkpt>
      <trkpt lat="44.05883" lon="7.22632">
        <ele>1678</ele>
        <time>2017-01-08T12:24:29Z</time>
      </trkpt>
      <trkpt lat="44.05886" lon="7.22638">
        <ele>1678</ele>
        <time>2017-01-08T12:24:34Z</time>
      </trkpt>
      <trkpt lat="44.05896" lon="7.22653">
        <ele>1678</ele>
        <time>2017-01-08T12:24:52Z</time>
      </trkpt>
      <trkpt lat="44.05898" lon="7.22659">
        <ele>1678</ele>
        <time>2017-01-08T12:24:56Z</time>
      </trkpt>
      <trkpt lat="44.05899" lon="7.22665">
        <ele>1678</ele>
        <time>2017-01-08T12:25:01Z</time>
      </trkpt>
      <trkpt lat="44.05902" lon="7.2267">
        <ele>1678</ele>
        <time>2017-01-08T12:25:05Z</time>
      </trkpt>
      <trkpt lat="44.05906" lon="7.22674">
        <ele>1679</ele>
        <time>2017-01-08T12:25:08Z</time>
      </trkpt>
      <trkpt lat="44.0591" lon="7.22678">
        <ele>1679</ele>
        <time>2017-01-08T12:25:12Z</time>
      </trkpt>
      <trkpt lat="44.05914" lon="7.22683">
        <ele>1678</ele>
        <time>2017-01-08T12:25:16Z</time>
      </trkpt>
      <trkpt lat="44.05916" lon="7.22689">
        <ele>1678</ele>
        <time>2017-01-08T12:25:21Z</time>
      </trkpt>
      <trkpt lat="44.0592" lon="7.22695">
        <ele>1678</ele>
        <time>2017-01-08T12:25:27Z</time>
      </trkpt>
      <trkpt lat="44.05921" lon="7.22709">
        <ele>1678</ele>
        <time>2017-01-08T12:25:37Z</time>
      </trkpt>
      <trkpt lat="44.05929" lon="7.22716">
        <ele>1676</ele>
        <time>2017-01-08T12:25:44Z</time>
      </trkpt>
      <trkpt lat="44.05934" lon="7.22726">
        <ele>1674</ele>
        <time>2017-01-08T12:25:55Z</time>
      </trkpt>
      <trkpt lat="44.05942" lon="7.2274">
        <ele>1673</ele>
        <time>2017-01-08T12:26:12Z</time>
      </trkpt>
      <trkpt lat="44.05947" lon="7.22744">
        <ele>1671</ele>
        <time>2017-01-08T12:26:41Z</time>
      </trkpt>
      <trkpt lat="44.0595" lon="7.22749">
        <ele>1671</ele>
        <time>2017-01-08T12:26:44Z</time>
      </trkpt>
      <trkpt lat="44.05947" lon="7.22755">
        <ele>1670</ele>
        <time>2017-01-08T12:27:17Z</time>
      </trkpt>
      <trkpt lat="44.05957" lon="7.22766">
        <ele>1668</ele>
        <time>2017-01-08T12:27:56Z</time>
      </trkpt>
      <trkpt lat="44.05961" lon="7.22778">
        <ele>1666</ele>
        <time>2017-01-08T12:28:28Z</time>
      </trkpt>
      <trkpt lat="44.05969" lon="7.22783">
        <ele>1664</ele>
        <time>2017-01-08T12:29:36Z</time>
      </trkpt>
      <trkpt lat="44.05977" lon="7.22792">
        <ele>1662</ele>
        <time>2017-01-08T12:29:46Z</time>
      </trkpt>
      <trkpt lat="44.05986" lon="7.22798">
        <ele>1660</ele>
        <time>2017-01-08T12:29:55Z</time>
      </trkpt>
      <trkpt lat="44.05993" lon="7.22807">
        <ele>1657</ele>
        <time>2017-01-08T12:30:09Z</time>
      </trkpt>
      <trkpt lat="44.06004" lon="7.2283">
        <ele>1655</ele>
        <time>2017-01-08T12:30:27Z</time>
      </trkpt>
      <trkpt lat="44.0601" lon="7.2284">
        <ele>1654</ele>
        <time>2017-01-08T12:30:39Z</time>
      </trkpt>
      <trkpt lat="44.06017" lon="7.22853">
        <ele>1648</ele>
        <time>2017-01-08T12:31:13Z</time>
      </trkpt>
      <trkpt lat="44.06028" lon="7.22858">
        <ele>1645</ele>
        <time>2017-01-08T12:31:57Z</time>
      </trkpt>
      <trkpt lat="44.06032" lon="7.22855">
        <ele>1643</ele>
        <time>2017-01-08T12:32:58Z</time>
      </trkpt>
      <trkpt lat="44.06041" lon="7.22855">
        <ele>1645</ele>
        <time>2017-01-08T12:33:48Z</time>
      </trkpt>
      <trkpt lat="44.06051" lon="7.22862">
        <ele>1649</ele>
        <time>2017-01-08T12:34:06Z</time>
      </trkpt>
      <trkpt lat="44.06058" lon="7.22876">
        <ele>1651</ele>
        <time>2017-01-08T12:34:26Z</time>
      </trkpt>
      <trkpt lat="44.06065" lon="7.22887">
        <ele>1650</ele>
        <time>2017-01-08T12:34:40Z</time>
      </trkpt>
      <trkpt lat="44.06068" lon="7.229">
        <ele>1650</ele>
        <time>2017-01-08T12:34:53Z</time>
      </trkpt>
      <trkpt lat="44.06076" lon="7.22907">
        <ele>1651</ele>
        <time>2017-01-08T12:35:00Z</time>
      </trkpt>
      <trkpt lat="44.06083" lon="7.22916">
        <ele>1653</ele>
        <time>2017-01-08T12:35:08Z</time>
      </trkpt>
      <trkpt lat="44.06097" lon="7.22949">
        <ele>1657</ele>
        <time>2017-01-08T12:35:37Z</time>
      </trkpt>
      <trkpt lat="44.06104" lon="7.22978">
        <ele>1659</ele>
        <time>2017-01-08T12:36:10Z</time>
      </trkpt>
      <trkpt lat="44.06109" lon="7.22989">
        <ele>1663</ele>
        <time>2017-01-08T12:36:25Z</time>
      </trkpt>
      <trkpt lat="44.06112" lon="7.23002">
        <ele>1663</ele>
        <time>2017-01-08T12:36:34Z</time>
      </trkpt>
      <trkpt lat="44.06111" lon="7.23028">
        <ele>1665</ele>
        <time>2017-01-08T12:36:58Z</time>
      </trkpt>
      <trkpt lat="44.06112" lon="7.23041">
        <ele>1667</ele>
        <time>2017-01-08T12:37:06Z</time>
      </trkpt>
      <trkpt lat="44.06126" lon="7.23076">
        <ele>1673</ele>
        <time>2017-01-08T12:37:36Z</time>
      </trkpt>
      <trkpt lat="44.0613" lon="7.23088">
        <ele>1678</ele>
        <time>2017-01-08T12:37:45Z</time>
      </trkpt>
      <trkpt lat="44.06131" lon="7.23101">
        <ele>1680</ele>
        <time>2017-01-08T12:37:54Z</time>
      </trkpt>
      <trkpt lat="44.06135" lon="7.23113">
        <ele>1682</ele>
        <time>2017-01-08T12:38:05Z</time>
      </trkpt>
      <trkpt lat="44.0614" lon="7.23123">
        <ele>1683</ele>
        <time>2017-01-08T12:38:19Z</time>
      </trkpt>
      <trkpt lat="44.06149" lon="7.23139">
        <ele>1696</ele>
        <time>2017-01-08T12:42:12Z</time>
      </trkpt>
      <trkpt lat="44.06156" lon="7.23157">
        <ele>1700</ele>
        <time>2017-01-08T12:42:42Z</time>
      </trkpt>
      <trkpt lat="44.06164" lon="7.23195">
        <ele>1704</ele>
        <time>2017-01-08T12:43:11Z</time>
      </trkpt>
      <trkpt lat="44.06178" lon="7.23211">
        <ele>1705</ele>
        <time>2017-01-08T12:43:33Z</time>
      </trkpt>
      <trkpt lat="44.06183" lon="7.23222">
        <ele>1707</ele>
        <time>2017-01-08T12:43:45Z</time>
      </trkpt>
      <trkpt lat="44.0618" lon="7.23234">
        <ele>1709</ele>
        <time>2017-01-08T12:43:57Z</time>
      </trkpt>
      <trkpt lat="44.06177" lon="7.23251">
        <ele>1712</ele>
        <time>2017-01-08T12:44:18Z</time>
      </trkpt>
      <trkpt lat="44.06176" lon="7.23278">
        <ele>1712</ele>
        <time>2017-01-08T12:44:37Z</time>
      </trkpt>
      <trkpt lat="44.06172" lon="7.2329">
        <ele>1712</ele>
        <time>2017-01-08T12:44:49Z</time>
      </trkpt>
      <trkpt lat="44.06176" lon="7.23279">
        <ele>1729</ele>
        <time>2017-01-08T12:48:12Z</time>
      </trkpt>
      <trkpt lat="44.06185" lon="7.23275">
        <ele>1728</ele>
        <time>2017-01-08T12:48:20Z</time>
      </trkpt>
      <trkpt lat="44.06201" lon="7.23277">
        <ele>1728</ele>
        <time>2017-01-08T12:48:55Z</time>
      </trkpt>
      <trkpt lat="44.06199" lon="7.2329">
        <ele>1728</ele>
        <time>2017-01-08T12:49:06Z</time>
      </trkpt>
      <trkpt lat="44.06209" lon="7.23289">
        <ele>1728</ele>
        <time>2017-01-08T12:49:20Z</time>
      </trkpt>
      <trkpt lat="44.06209" lon="7.23302">
        <ele>1729</ele>
        <time>2017-01-08T12:49:32Z</time>
      </trkpt>
      <trkpt lat="44.06206" lon="7.23326">
        <ele>1734</ele>
        <time>2017-01-08T12:50:10Z</time>
      </trkpt>
      <trkpt lat="44.06205" lon="7.23339">
        <ele>1736</ele>
        <time>2017-01-08T12:50:20Z</time>
      </trkpt>
      <trkpt lat="44.06208" lon="7.23351">
        <ele>1741</ele>
        <time>2017-01-08T12:50:32Z</time>
      </trkpt>
      <trkpt lat="44.06217" lon="7.23358">
        <ele>1743</ele>
        <time>2017-01-08T12:50:49Z</time>
      </trkpt>
      <trkpt lat="44.06218" lon="7.23371">
        <ele>1748</ele>
        <time>2017-01-08T12:51:04Z</time>
      </trkpt>
      <trkpt lat="44.06221" lon="7.23383">
        <ele>1751</ele>
        <time>2017-01-08T12:51:18Z</time>
      </trkpt>
      <trkpt lat="44.06224" lon="7.23392">
        <ele>1758</ele>
        <time>2017-01-08T12:51:40Z</time>
      </trkpt>
      <trkpt lat="44.06226" lon="7.23398">
        <ele>1761</ele>
        <time>2017-01-08T12:51:46Z</time>
      </trkpt>
      <trkpt lat="44.0623" lon="7.23393">
        <ele>1767</ele>
        <time>2017-01-08T12:52:47Z</time>
      </trkpt>
      <trkpt lat="44.0623" lon="7.23383">
        <ele>1768</ele>
        <time>2017-01-08T12:52:58Z</time>
      </trkpt>
      <trkpt lat="44.06232" lon="7.23377">
        <ele>1768</ele>
        <time>2017-01-08T12:53:03Z</time>
      </trkpt>
      <trkpt lat="44.06237" lon="7.23374">
        <ele>1768</ele>
        <time>2017-01-08T12:53:09Z</time>
      </trkpt>
      <trkpt lat="44.06242" lon="7.23376">
        <ele>1768</ele>
        <time>2017-01-08T12:53:17Z</time>
      </trkpt>
      <trkpt lat="44.06255" lon="7.23363">
        <ele>1770</ele>
        <time>2017-01-08T12:53:47Z</time>
      </trkpt>
      <trkpt lat="44.06256" lon="7.23358">
        <ele>1781</ele>
        <time>2017-01-08T12:57:40Z</time>
      </trkpt>
      <trkpt lat="44.0626" lon="7.2336">
        <ele>1779</ele>
        <time>2017-01-08T13:37:38Z</time>
      </trkpt>
      <trkpt lat="44.06269" lon="7.23357">
        <ele>1778</ele>
        <time>2017-01-08T13:40:12Z</time>
      </trkpt>
      <trkpt lat="44.06275" lon="7.23357">
        <ele>1777</ele>
        <time>2017-01-08T13:40:33Z</time>
      </trkpt>
      <trkpt lat="44.06282" lon="7.23356">
        <ele>1774</ele>
        <time>2017-01-08T13:40:53Z</time>
      </trkpt>
      <trkpt lat="44.06291" lon="7.23359">
        <ele>1768</ele>
        <time>2017-01-08T13:41:16Z</time>
      </trkpt>
      <trkpt lat="44.063" lon="7.23367">
        <ele>1765</ele>
        <time>2017-01-08T13:41:42Z</time>
      </trkpt>
      <trkpt lat="44.06306" lon="7.2337">
        <ele>1762</ele>
        <time>2017-01-08T13:42:27Z</time>
      </trkpt>
      <trkpt lat="44.06311" lon="7.23373">
        <ele>1762</ele>
        <time>2017-01-08T13:42:32Z</time>
      </trkpt>
      <trkpt lat="44.06316" lon="7.23373">
        <ele>1763</ele>
        <time>2017-01-08T13:42:40Z</time>
      </trkpt>
      <trkpt lat="44.06322" lon="7.23373">
        <ele>1762</ele>
        <time>2017-01-08T13:42:52Z</time>
      </trkpt>
      <trkpt lat="44.06327" lon="7.23375">
        <ele>1762</ele>
        <time>2017-01-08T13:42:56Z</time>
      </trkpt>
      <trkpt lat="44.0634" lon="7.23383">
        <ele>1759</ele>
        <time>2017-01-08T13:43:20Z</time>
      </trkpt>
      <trkpt lat="44.06348" lon="7.23388">
        <ele>1748</ele>
        <time>2017-01-08T13:46:04Z</time>
      </trkpt>
      <trkpt lat="44.06372" lon="7.23392">
        <ele>1741</ele>
        <time>2017-01-08T13:46:27Z</time>
      </trkpt>
      <trkpt lat="44.06394" lon="7.23413">
        <ele>1737</ele>
        <time>2017-01-08T13:46:46Z</time>
      </trkpt>
      <trkpt lat="44.06404" lon="7.23413">
        <ele>1735</ele>
        <time>2017-01-08T13:47:13Z</time>
      </trkpt>
      <trkpt lat="44.06413" lon="7.23416">
        <ele>1731</ele>
        <time>2017-01-08T13:47:41Z</time>
      </trkpt>
      <trkpt lat="44.0642" lon="7.23425">
        <ele>1728</ele>
        <time>2017-01-08T13:48:17Z</time>
      </trkpt>
      <trkpt lat="44.06429" lon="7.23429">
        <ele>1723</ele>
        <time>2017-01-08T13:48:27Z</time>
      </trkpt>
      <trkpt lat="44.06448" lon="7.23434">
        <ele>1719</ele>
        <time>2017-01-08T13:48:43Z</time>
      </trkpt>
      <trkpt lat="44.06457" lon="7.23439">
        <ele>1716</ele>
        <time>2017-01-08T13:48:52Z</time>
      </trkpt>
      <trkpt lat="44.0646" lon="7.23429">
        <ele>1716</ele>
        <time>2017-01-08T13:49:53Z</time>
      </trkpt>
      <trkpt lat="44.06462" lon="7.23435">
        <ele>1717</ele>
        <time>2017-01-08T13:50:14Z</time>
      </trkpt>
      <trkpt lat="44.06467" lon="7.23438">
        <ele>1716</ele>
        <time>2017-01-08T13:50:44Z</time>
      </trkpt>
      <trkpt lat="44.0647" lon="7.23442">
        <ele>1715</ele>
        <time>2017-01-08T13:50:48Z</time>
      </trkpt>
      <trkpt lat="44.06474" lon="7.23447">
        <ele>1714</ele>
        <time>2017-01-08T13:50:53Z</time>
      </trkpt>
      <trkpt lat="44.06508" lon="7.23478">
        <ele>1702</ele>
        <time>2017-01-08T13:51:26Z</time>
      </trkpt>
      <trkpt lat="44.06522" lon="7.23486">
        <ele>1701</ele>
        <time>2017-01-08T13:51:41Z</time>
      </trkpt>
      <trkpt lat="44.06531" lon="7.23491">
        <ele>1701</ele>
        <time>2017-01-08T13:51:50Z</time>
      </trkpt>
      <trkpt lat="44.06564" lon="7.23514">
        <ele>1694</ele>
        <time>2017-01-08T13:52:19Z</time>
      </trkpt>
      <trkpt lat="44.06573" lon="7.23517">
        <ele>1692</ele>
        <time>2017-01-08T13:52:26Z</time>
      </trkpt>
      <trkpt lat="44.0658" lon="7.23526">
        <ele>1691</ele>
        <time>2017-01-08T13:52:34Z</time>
      </trkpt>
      <trkpt lat="44.06588" lon="7.23533">
        <ele>1689</ele>
        <time>2017-01-08T13:52:41Z</time>
      </trkpt>
      <trkpt lat="44.06595" lon="7.23543">
        <ele>1688</ele>
        <time>2017-01-08T13:52:49Z</time>
      </trkpt>
      <trkpt lat="44.06611" lon="7.23559">
        <ele>1681</ele>
        <time>2017-01-08T13:53:04Z</time>
      </trkpt>
      <trkpt lat="44.0662" lon="7.23564">
        <ele>1678</ele>
        <time>2017-01-08T13:53:12Z</time>
      </trkpt>
      <trkpt lat="44.06653" lon="7.23592">
        <ele>1673</ele>
        <time>2017-01-08T13:53:41Z</time>
      </trkpt>
      <trkpt lat="44.06659" lon="7.23602">
        <ele>1670</ele>
        <time>2017-01-08T13:53:50Z</time>
      </trkpt>
      <trkpt lat="44.06689" lon="7.23621">
        <ele>1663</ele>
        <time>2017-01-08T13:54:30Z</time>
      </trkpt>
      <trkpt lat="44.06715" lon="7.23636">
        <ele>1651</ele>
        <time>2017-01-08T13:55:03Z</time>
      </trkpt>
      <trkpt lat="44.06735" lon="7.23644">
        <ele>1648</ele>
        <time>2017-01-08T13:55:19Z</time>
      </trkpt>
      <trkpt lat="44.06764" lon="7.23652">
        <ele>1648</ele>
        <time>2017-01-08T13:55:43Z</time>
      </trkpt>
      <trkpt lat="44.06773" lon="7.23654">
        <ele>1649</ele>
        <time>2017-01-08T13:55:52Z</time>
      </trkpt>
      <trkpt lat="44.06782" lon="7.23656">
        <ele>1647</ele>
        <time>2017-01-08T13:56:04Z</time>
      </trkpt>
      <trkpt lat="44.06797" lon="7.23651">
        <ele>1638</ele>
        <time>2017-01-08T13:57:15Z</time>
      </trkpt>
      <trkpt lat="44.06809" lon="7.23638">
        <ele>1632</ele>
        <time>2017-01-08T13:57:53Z</time>
      </trkpt>
      <trkpt lat="44.06817" lon="7.23631">
        <ele>1628</ele>
        <time>2017-01-08T13:58:03Z</time>
      </trkpt>
      <trkpt lat="44.06818" lon="7.23619">
        <ele>1625</ele>
        <time>2017-01-08T13:58:14Z</time>
      </trkpt>
      <trkpt lat="44.06827" lon="7.23615">
        <ele>1620</ele>
        <time>2017-01-08T13:58:43Z</time>
      </trkpt>
      <trkpt lat="44.06833" lon="7.23604">
        <ele>1621</ele>
        <time>2017-01-08T13:58:58Z</time>
      </trkpt>
      <trkpt lat="44.06836" lon="7.23589">
        <ele>1613</ele>
        <time>2017-01-08T14:00:06Z</time>
      </trkpt>
      <trkpt lat="44.06835" lon="7.23562">
        <ele>1610</ele>
        <time>2017-01-08T14:00:30Z</time>
      </trkpt>
      <trkpt lat="44.06846" lon="7.23543">
        <ele>1603</ele>
        <time>2017-01-08T14:01:09Z</time>
      </trkpt>
      <trkpt lat="44.06856" lon="7.2353">
        <ele>1598</ele>
        <time>2017-01-08T14:01:41Z</time>
      </trkpt>
      <trkpt lat="44.06874" lon="7.23499">
        <ele>1580</ele>
        <time>2017-01-08T14:02:15Z</time>
      </trkpt>
      <trkpt lat="44.06885" lon="7.23477">
        <ele>1569</ele>
        <time>2017-01-08T14:02:42Z</time>
      </trkpt>
      <trkpt lat="44.06895" lon="7.23468">
        <ele>1564</ele>
        <time>2017-01-08T14:05:47Z</time>
      </trkpt>
      <trkpt lat="44.06904" lon="7.23466">
        <ele>1564</ele>
        <time>2017-01-08T14:06:07Z</time>
      </trkpt>
      <trkpt lat="44.06914" lon="7.23469">
        <ele>1557</ele>
        <time>2017-01-08T14:06:19Z</time>
      </trkpt>
      <trkpt lat="44.06922" lon="7.23462">
        <ele>1554</ele>
        <time>2017-01-08T14:06:32Z</time>
      </trkpt>
      <trkpt lat="44.06933" lon="7.23463">
        <ele>1546</ele>
        <time>2017-01-08T14:07:03Z</time>
      </trkpt>
      <trkpt lat="44.0695" lon="7.23474">
        <ele>1544</ele>
        <time>2017-01-08T14:07:19Z</time>
      </trkpt>
      <trkpt lat="44.06962" lon="7.23489">
        <ele>1541</ele>
        <time>2017-01-08T14:10:24Z</time>
      </trkpt>
      <trkpt lat="44.06962" lon="7.23502">
        <ele>1541</ele>
        <time>2017-01-08T14:10:32Z</time>
      </trkpt>
      <trkpt lat="44.06967" lon="7.23513">
        <ele>1539</ele>
        <time>2017-01-08T14:10:41Z</time>
      </trkpt>
      <trkpt lat="44.06985" lon="7.2353">
        <ele>1539</ele>
        <time>2017-01-08T14:10:57Z</time>
      </trkpt>
      <trkpt lat="44.07003" lon="7.23545">
        <ele>1540</ele>
        <time>2017-01-08T14:11:17Z</time>
      </trkpt>
      <trkpt lat="44.06995" lon="7.23538">
        <ele>1539</ele>
        <time>2017-01-08T14:11:30Z</time>
      </trkpt>
      <trkpt lat="44.06989" lon="7.2352">
        <ele>1534</ele>
        <time>2017-01-08T14:12:09Z</time>
      </trkpt>
      <trkpt lat="44.06993" lon="7.23508">
        <ele>1530</ele>
        <time>2017-01-08T14:12:23Z</time>
      </trkpt>
      <trkpt lat="44.06992" lon="7.23495">
        <ele>1527</ele>
        <time>2017-01-08T14:12:40Z</time>
      </trkpt>
      <trkpt lat="44.06994" lon="7.23482">
        <ele>1526</ele>
        <time>2017-01-08T14:12:51Z</time>
      </trkpt>
      <trkpt lat="44.07001" lon="7.23472">
        <ele>1525</ele>
        <time>2017-01-08T14:12:58Z</time>
      </trkpt>
      <trkpt lat="44.07005" lon="7.2346">
        <ele>1520</ele>
        <time>2017-01-08T14:13:16Z</time>
      </trkpt>
      <trkpt lat="44.07012" lon="7.23451">
        <ele>1520</ele>
        <time>2017-01-08T14:13:30Z</time>
      </trkpt>
      <trkpt lat="44.07017" lon="7.23439">
        <ele>1520</ele>
        <time>2017-01-08T14:13:37Z</time>
      </trkpt>
      <trkpt lat="44.07018" lon="7.23426">
        <ele>1518</ele>
        <time>2017-01-08T14:13:46Z</time>
      </trkpt>
      <trkpt lat="44.0701" lon="7.23416">
        <ele>1513</ele>
        <time>2017-01-08T14:13:56Z</time>
      </trkpt>
      <trkpt lat="44.07002" lon="7.23405">
        <ele>1511</ele>
        <time>2017-01-08T14:13:59Z</time>
      </trkpt>
      <trkpt lat="44.07003" lon="7.23364">
        <ele>1504</ele>
        <time>2017-01-08T14:14:26Z</time>
      </trkpt>
      <trkpt lat="44.06989" lon="7.23315">
        <ele>1502</ele>
        <time>2017-01-08T14:15:00Z</time>
      </trkpt>
      <trkpt lat="44.06986" lon="7.23303">
        <ele>1501</ele>
        <time>2017-01-08T14:15:07Z</time>
      </trkpt>
      <trkpt lat="44.06981" lon="7.23293">
        <ele>1499</ele>
        <time>2017-01-08T14:15:14Z</time>
      </trkpt>
      <trkpt lat="44.06988" lon="7.23298">
        <ele>1497</ele>
        <time>2017-01-08T14:15:48Z</time>
      </trkpt>
      <trkpt lat="44.06991" lon="7.23283">
        <ele>1498</ele>
        <time>2017-01-08T14:15:58Z</time>
      </trkpt>
      <trkpt lat="44.06999" lon="7.23276">
        <ele>1500</ele>
        <time>2017-01-08T14:16:09Z</time>
      </trkpt>
      <trkpt lat="44.07008" lon="7.23283">
        <ele>1499</ele>
        <time>2017-01-08T14:16:15Z</time>
      </trkpt>
      <trkpt lat="44.07016" lon="7.23276">
        <ele>1499</ele>
        <time>2017-01-08T14:16:24Z</time>
      </trkpt>
      <trkpt lat="44.07015" lon="7.23259">
        <ele>1491</ele>
        <time>2017-01-08T14:17:04Z</time>
      </trkpt>
      <trkpt lat="44.07009" lon="7.23233">
        <ele>1482</ele>
        <time>2017-01-08T14:17:23Z</time>
      </trkpt>
      <trkpt lat="44.07012" lon="7.2322">
        <ele>1477</ele>
        <time>2017-01-08T14:17:45Z</time>
      </trkpt>
      <trkpt lat="44.0699" lon="7.23224">
        <ele>1472</ele>
        <time>2017-01-08T14:18:31Z</time>
      </trkpt>
      <trkpt lat="44.06999" lon="7.23225">
        <ele>1470</ele>
        <time>2017-01-08T14:18:37Z</time>
      </trkpt>
      <trkpt lat="44.07009" lon="7.23222">
        <ele>1470</ele>
        <time>2017-01-08T14:18:42Z</time>
      </trkpt>
      <trkpt lat="44.07015" lon="7.23214">
        <ele>1473</ele>
        <time>2017-01-08T14:19:35Z</time>
      </trkpt>
      <trkpt lat="44.07017" lon="7.232">
        <ele>1472</ele>
        <time>2017-01-08T14:19:51Z</time>
      </trkpt>
      <trkpt lat="44.07024" lon="7.23192">
        <ele>1469</ele>
        <time>2017-01-08T14:19:59Z</time>
      </trkpt>
      <trkpt lat="44.07029" lon="7.23178">
        <ele>1459</ele>
        <time>2017-01-08T14:20:45Z</time>
      </trkpt>
      <trkpt lat="44.07034" lon="7.23166">
        <ele>1456</ele>
        <time>2017-01-08T14:20:53Z</time>
      </trkpt>
      <trkpt lat="44.07043" lon="7.23162">
        <ele>1455</ele>
        <time>2017-01-08T14:20:59Z</time>
      </trkpt>
      <trkpt lat="44.07039" lon="7.23149">
        <ele>1452</ele>
        <time>2017-01-08T14:21:06Z</time>
      </trkpt>
      <trkpt lat="44.07042" lon="7.23134">
        <ele>1449</ele>
        <time>2017-01-08T14:21:12Z</time>
      </trkpt>
      <trkpt lat="44.07051" lon="7.23133">
        <ele>1439</ele>
        <time>2017-01-08T14:22:13Z</time>
      </trkpt>
      <trkpt lat="44.07054" lon="7.23121">
        <ele>1438</ele>
        <time>2017-01-08T14:22:21Z</time>
      </trkpt>
      <trkpt lat="44.07051" lon="7.23109">
        <ele>1428</ele>
        <time>2017-01-08T14:23:47Z</time>
      </trkpt>
      <trkpt lat="44.07049" lon="7.23127">
        <ele>1427</ele>
        <time>2017-01-08T14:26:38Z</time>
      </trkpt>
      <trkpt lat="44.07043" lon="7.23138">
        <ele>1427</ele>
        <time>2017-01-08T14:26:48Z</time>
      </trkpt>
      <trkpt lat="44.07034" lon="7.23144">
        <ele>1427</ele>
        <time>2017-01-08T14:26:51Z</time>
      </trkpt>
      <trkpt lat="44.07033" lon="7.23158">
        <ele>1427</ele>
        <time>2017-01-08T14:26:59Z</time>
      </trkpt>
      <trkpt lat="44.07043" lon="7.2316">
        <ele>1426</ele>
        <time>2017-01-08T14:27:10Z</time>
      </trkpt>
      <trkpt lat="44.07052" lon="7.23162">
        <ele>1427</ele>
        <time>2017-01-08T14:27:15Z</time>
      </trkpt>
      <trkpt lat="44.0708" lon="7.23172">
        <ele>1432</ele>
        <time>2017-01-08T14:27:39Z</time>
      </trkpt>
      <trkpt lat="44.07086" lon="7.23182">
        <ele>1432</ele>
        <time>2017-01-08T14:27:50Z</time>
      </trkpt>
      <trkpt lat="44.07093" lon="7.2319">
        <ele>1429</ele>
        <time>2017-01-08T14:28:01Z</time>
      </trkpt>
      <trkpt lat="44.07112" lon="7.23221">
        <ele>1427</ele>
        <time>2017-01-08T14:28:26Z</time>
      </trkpt>
      <trkpt lat="44.07114" lon="7.23233">
        <ele>1426</ele>
        <time>2017-01-08T14:28:37Z</time>
      </trkpt>
      <trkpt lat="44.0712" lon="7.23243">
        <ele>1425</ele>
        <time>2017-01-08T14:28:47Z</time>
      </trkpt>
      <trkpt lat="44.07127" lon="7.23255">
        <ele>1424</ele>
        <time>2017-01-08T14:28:51Z</time>
      </trkpt>
      <trkpt lat="44.07155" lon="7.23278">
        <ele>1425</ele>
        <time>2017-01-08T14:29:08Z</time>
      </trkpt>
      <trkpt lat="44.07161" lon="7.2329">
        <ele>1425</ele>
        <time>2017-01-08T14:29:14Z</time>
      </trkpt>
      <trkpt lat="44.0717" lon="7.23297">
        <ele>1425</ele>
        <time>2017-01-08T14:29:21Z</time>
      </trkpt>
      <trkpt lat="44.07177" lon="7.23305">
        <ele>1425</ele>
        <time>2017-01-08T14:29:26Z</time>
      </trkpt>
      <trkpt lat="44.07178" lon="7.23321">
        <ele>1423</ele>
        <time>2017-01-08T14:29:39Z</time>
      </trkpt>
      <trkpt lat="44.07179" lon="7.23334">
        <ele>1422</ele>
        <time>2017-01-08T14:29:45Z</time>
      </trkpt>
      <trkpt lat="44.07176" lon="7.23348">
        <ele>1420</ele>
        <time>2017-01-08T14:30:23Z</time>
      </trkpt>
      <trkpt lat="44.07187" lon="7.23358">
        <ele>1421</ele>
        <time>2017-01-08T14:31:01Z</time>
      </trkpt>
      <trkpt lat="44.07185" lon="7.23384">
        <ele>1426</ele>
        <time>2017-01-08T14:31:18Z</time>
      </trkpt>
      <trkpt lat="44.0719" lon="7.23395">
        <ele>1426</ele>
        <time>2017-01-08T14:31:25Z</time>
      </trkpt>
      <trkpt lat="44.07192" lon="7.23408">
        <ele>1423</ele>
        <time>2017-01-08T14:31:34Z</time>
      </trkpt>
      <trkpt lat="44.07201" lon="7.23409">
        <ele>1421</ele>
        <time>2017-01-08T14:31:40Z</time>
      </trkpt>
      <trkpt lat="44.07211" lon="7.23416">
        <ele>1419</ele>
        <time>2017-01-08T14:31:46Z</time>
      </trkpt>
      <trkpt lat="44.0721" lon="7.2343">
        <ele>1417</ele>
        <time>2017-01-08T14:31:51Z</time>
      </trkpt>
      <trkpt lat="44.07205" lon="7.23444">
        <ele>1415</ele>
        <time>2017-01-08T14:31:57Z</time>
      </trkpt>
      <trkpt lat="44.07202" lon="7.23471">
        <ele>1409</ele>
        <time>2017-01-08T14:32:12Z</time>
      </trkpt>
      <trkpt lat="44.07207" lon="7.23484">
        <ele>1406</ele>
        <time>2017-01-08T14:32:19Z</time>
      </trkpt>
      <trkpt lat="44.07213" lon="7.23493">
        <ele>1401</ele>
        <time>2017-01-08T14:32:28Z</time>
      </trkpt>
      <trkpt lat="44.07213" lon="7.23508">
        <ele>1398</ele>
        <time>2017-01-08T14:32:41Z</time>
      </trkpt>
      <trkpt lat="44.07216" lon="7.2352">
        <ele>1399</ele>
        <time>2017-01-08T14:32:47Z</time>
      </trkpt>
      <trkpt lat="44.07223" lon="7.23529">
        <ele>1400</ele>
        <time>2017-01-08T14:32:53Z</time>
      </trkpt>
      <trkpt lat="44.07227" lon="7.23541">
        <ele>1402</ele>
        <time>2017-01-08T14:33:05Z</time>
      </trkpt>
      <trkpt lat="44.0722" lon="7.23552">
        <ele>1400</ele>
        <time>2017-01-08T14:33:27Z</time>
      </trkpt>
      <trkpt lat="44.07216" lon="7.23564">
        <ele>1393</ele>
        <time>2017-01-08T14:33:36Z</time>
      </trkpt>
      <trkpt lat="44.07214" lon="7.23577">
        <ele>1390</ele>
        <time>2017-01-08T14:33:48Z</time>
      </trkpt>
      <trkpt lat="44.0721" lon="7.23588">
        <ele>1386</ele>
        <time>2017-01-08T14:33:56Z</time>
      </trkpt>
      <trkpt lat="44.07208" lon="7.23601">
        <ele>1384</ele>
        <time>2017-01-08T14:34:04Z</time>
      </trkpt>
      <trkpt lat="44.07203" lon="7.23612">
        <ele>1383</ele>
        <time>2017-01-08T14:34:11Z</time>
      </trkpt>
      <trkpt lat="44.07201" lon="7.23623">
        <ele>1377</ele>
        <time>2017-01-08T14:34:59Z</time>
      </trkpt>
      <trkpt lat="44.07216" lon="7.23608">
        <ele>1377</ele>
        <time>2017-01-08T14:36:01Z</time>
      </trkpt>
      <trkpt lat="44.07225" lon="7.23607">
        <ele>1377</ele>
        <time>2017-01-08T14:36:06Z</time>
      </trkpt>
      <trkpt lat="44.07225" lon="7.23619">
        <ele>1372</ele>
        <time>2017-01-08T14:36:21Z</time>
      </trkpt>
      <trkpt lat="44.07235" lon="7.23618">
        <ele>1371</ele>
        <time>2017-01-08T14:36:45Z</time>
      </trkpt>
      <trkpt lat="44.07237" lon="7.2364">
        <ele>1363</ele>
        <time>2017-01-08T14:37:30Z</time>
      </trkpt>
      <trkpt lat="44.07245" lon="7.2365">
        <ele>1361</ele>
        <time>2017-01-08T14:37:40Z</time>
      </trkpt>
      <trkpt lat="44.07234" lon="7.23664">
        <ele>1351</ele>
        <time>2017-01-08T14:39:03Z</time>
      </trkpt>
      <trkpt lat="44.07231" lon="7.23681">
        <ele>1343</ele>
        <time>2017-01-08T14:39:44Z</time>
      </trkpt>
      <trkpt lat="44.07229" lon="7.23708">
        <ele>1335</ele>
        <time>2017-01-08T14:40:04Z</time>
      </trkpt>
      <trkpt lat="44.07226" lon="7.23722">
        <ele>1333</ele>
        <time>2017-01-08T14:40:13Z</time>
      </trkpt>
      <trkpt lat="44.07228" lon="7.23735">
        <ele>1327</ele>
        <time>2017-01-08T14:40:33Z</time>
      </trkpt>
      <trkpt lat="44.07225" lon="7.2375">
        <ele>1318</ele>
        <time>2017-01-08T14:40:51Z</time>
      </trkpt>
      <trkpt lat="44.07226" lon="7.23772">
        <ele>1312</ele>
        <time>2017-01-08T14:41:25Z</time>
      </trkpt>
      <trkpt lat="44.07216" lon="7.2378">
        <ele>1312</ele>
        <time>2017-01-08T14:42:16Z</time>
      </trkpt>
      <trkpt lat="44.07212" lon="7.23765">
        <ele>1313</ele>
        <time>2017-01-08T14:42:26Z</time>
      </trkpt>
      <trkpt lat="44.07203" lon="7.23765">
        <ele>1313</ele>
        <time>2017-01-08T14:42:55Z</time>
      </trkpt>
      <trkpt lat="44.07202" lon="7.23809">
        <ele>1314</ele>
        <time>2017-01-08T14:43:20Z</time>
      </trkpt>
      <trkpt lat="44.07195" lon="7.23817">
        <ele>1313</ele>
        <time>2017-01-08T14:43:27Z</time>
      </trkpt>
      <trkpt lat="44.0719" lon="7.23829">
        <ele>1314</ele>
        <time>2017-01-08T14:43:41Z</time>
      </trkpt>
      <trkpt lat="44.07183" lon="7.23837">
        <ele>1314</ele>
        <time>2017-01-08T14:43:49Z</time>
      </trkpt>
      <trkpt lat="44.07175" lon="7.23844">
        <ele>1314</ele>
        <time>2017-01-08T14:43:57Z</time>
      </trkpt>
      <trkpt lat="44.07171" lon="7.23859">
        <ele>1317</ele>
        <time>2017-01-08T14:44:15Z</time>
      </trkpt>
      <trkpt lat="44.07166" lon="7.23871">
        <ele>1320</ele>
        <time>2017-01-08T14:44:33Z</time>
      </trkpt>
      <trkpt lat="44.07158" lon="7.23879">
        <ele>1321</ele>
        <time>2017-01-08T14:44:39Z</time>
      </trkpt>
      <trkpt lat="44.07159" lon="7.23892">
        <ele>1323</ele>
        <time>2017-01-08T14:44:54Z</time>
      </trkpt>
      <trkpt lat="44.07152" lon="7.23918">
        <ele>1327</ele>
        <time>2017-01-08T14:45:22Z</time>
      </trkpt>
      <trkpt lat="44.07147" lon="7.2393">
        <ele>1327</ele>
        <time>2017-01-08T14:45:31Z</time>
      </trkpt>
      <trkpt lat="44.07139" lon="7.23941">
        <ele>1328</ele>
        <time>2017-01-08T14:45:35Z</time>
      </trkpt>
      <trkpt lat="44.07131" lon="7.23944">
        <ele>1329</ele>
        <time>2017-01-08T14:45:46Z</time>
      </trkpt>
      <trkpt lat="44.07124" lon="7.23955">
        <ele>1332</ele>
        <time>2017-01-08T14:45:55Z</time>
      </trkpt>
      <trkpt lat="44.07131" lon="7.23967">
        <ele>1333</ele>
        <time>2017-01-08T14:46:16Z</time>
      </trkpt>
      <trkpt lat="44.07124" lon="7.23976">
        <ele>1334</ele>
        <time>2017-01-08T14:46:29Z</time>
      </trkpt>
      <trkpt lat="44.07124" lon="7.2399">
        <ele>1336</ele>
        <time>2017-01-08T14:46:39Z</time>
      </trkpt>
      <trkpt lat="44.0713" lon="7.23995">
        <ele>1340</ele>
        <time>2017-01-08T14:47:18Z</time>
      </trkpt>
      <trkpt lat="44.07144" lon="7.24003">
        <ele>1347</ele>
        <time>2017-01-08T14:48:17Z</time>
      </trkpt>
      <trkpt lat="44.07145" lon="7.24001">
        <ele>1367</ele>
        <time>2017-01-08T14:49:15Z</time>
      </trkpt>
      <trkpt lat="44.07135" lon="7.23989">
        <ele>1369</ele>
        <time>2017-01-08T14:50:01Z</time>
      </trkpt>
      <trkpt lat="44.07125" lon="7.23981">
        <ele>1362</ele>
        <time>2017-01-08T14:51:00Z</time>
      </trkpt>
      <trkpt lat="44.07116" lon="7.23978">
        <ele>1361</ele>
        <time>2017-01-08T14:51:12Z</time>
      </trkpt>
      <trkpt lat="44.07109" lon="7.23988">
        <ele>1361</ele>
        <time>2017-01-08T14:51:22Z</time>
      </trkpt>
      <trkpt lat="44.07101" lon="7.23995">
        <ele>1360</ele>
        <time>2017-01-08T14:51:31Z</time>
      </trkpt>
      <trkpt lat="44.07096" lon="7.24005">
        <ele>1361</ele>
        <time>2017-01-08T14:51:42Z</time>
      </trkpt>
      <trkpt lat="44.0708" lon="7.24018">
        <ele>1361</ele>
        <time>2017-01-08T14:52:01Z</time>
      </trkpt>
      <trkpt lat="44.07063" lon="7.24031">
        <ele>1363</ele>
        <time>2017-01-08T14:52:21Z</time>
      </trkpt>
      <trkpt lat="44.07054" lon="7.24042">
        <ele>1365</ele>
        <time>2017-01-08T14:52:42Z</time>
      </trkpt>
      <trkpt lat="44.07045" lon="7.24047">
        <ele>1366</ele>
        <time>2017-01-08T14:52:50Z</time>
      </trkpt>
      <trkpt lat="44.07042" lon="7.24059">
        <ele>1368</ele>
        <time>2017-01-08T14:53:00Z</time>
      </trkpt>
      <trkpt lat="44.07046" lon="7.2407">
        <ele>1368</ele>
        <time>2017-01-08T14:53:09Z</time>
      </trkpt>
      <trkpt lat="44.07045" lon="7.24084">
        <ele>1370</ele>
        <time>2017-01-08T14:53:26Z</time>
      </trkpt>
      <trkpt lat="44.07061" lon="7.241">
        <ele>1372</ele>
        <time>2017-01-08T14:53:38Z</time>
      </trkpt>
      <trkpt lat="44.07053" lon="7.24116">
        <ele>1376</ele>
        <time>2017-01-08T14:54:16Z</time>
      </trkpt>
      <trkpt lat="44.07051" lon="7.2411">
        <ele>1380</ele>
        <time>2017-01-08T14:55:35Z</time>
      </trkpt>
      <trkpt lat="44.07051" lon="7.241">
        <ele>1381</ele>
        <time>2017-01-08T14:57:30Z</time>
      </trkpt>
      <trkpt lat="44.07033" lon="7.24082">
        <ele>1380</ele>
        <time>2017-01-08T14:58:28Z</time>
      </trkpt>
      <trkpt lat="44.07039" lon="7.24092">
        <ele>1386</ele>
        <time>2017-01-08T14:58:58Z</time>
      </trkpt>
      <trkpt lat="44.07025" lon="7.24076">
        <ele>1390</ele>
        <time>2017-01-08T14:59:18Z</time>
      </trkpt>
      <trkpt lat="44.07035" lon="7.24079">
        <ele>1391</ele>
        <time>2017-01-08T14:59:38Z</time>
      </trkpt>
      <trkpt lat="44.07047" lon="7.24126">
        <ele>1399</ele>
        <time>2017-01-08T15:02:47Z</time>
      </trkpt>
      <trkpt lat="44.07057" lon="7.24125">
        <ele>1405</ele>
        <time>2017-01-08T15:03:11Z</time>
      </trkpt>
      <trkpt lat="44.07056" lon="7.2415">
        <ele>1408</ele>
        <time>2017-01-08T15:03:35Z</time>
      </trkpt>
      <trkpt lat="44.07061" lon="7.24161">
        <ele>1407</ele>
        <time>2017-01-08T15:03:42Z</time>
      </trkpt>
      <trkpt lat="44.07065" lon="7.24174">
        <ele>1403</ele>
        <time>2017-01-08T15:03:48Z</time>
      </trkpt>
      <trkpt lat="44.07071" lon="7.24184">
        <ele>1400</ele>
        <time>2017-01-08T15:03:55Z</time>
      </trkpt>
      <trkpt lat="44.07066" lon="7.24215">
        <ele>1395</ele>
        <time>2017-01-08T15:04:09Z</time>
      </trkpt>
      <trkpt lat="44.07067" lon="7.24227">
        <ele>1393</ele>
        <time>2017-01-08T15:04:19Z</time>
      </trkpt>
      <trkpt lat="44.07058" lon="7.2423">
        <ele>1392</ele>
        <time>2017-01-08T15:04:31Z</time>
      </trkpt>
      <trkpt lat="44.07071" lon="7.24244">
        <ele>1385</ele>
        <time>2017-01-08T15:04:58Z</time>
      </trkpt>
      <trkpt lat="44.07079" lon="7.24251">
        <ele>1385</ele>
        <time>2017-01-08T15:05:07Z</time>
      </trkpt>
      <trkpt lat="44.07082" lon="7.24264">
        <ele>1384</ele>
        <time>2017-01-08T15:05:16Z</time>
      </trkpt>
      <trkpt lat="44.07084" lon="7.24276">
        <ele>1383</ele>
        <time>2017-01-08T15:05:24Z</time>
      </trkpt>
      <trkpt lat="44.07077" lon="7.24288">
        <ele>1381</ele>
        <time>2017-01-08T15:05:34Z</time>
      </trkpt>
      <trkpt lat="44.07069" lon="7.2431">
        <ele>1378</ele>
        <time>2017-01-08T15:05:49Z</time>
      </trkpt>
      <trkpt lat="44.07074" lon="7.24323">
        <ele>1376</ele>
        <time>2017-01-08T15:05:54Z</time>
      </trkpt>
      <trkpt lat="44.07075" lon="7.24335">
        <ele>1374</ele>
        <time>2017-01-08T15:05:59Z</time>
      </trkpt>
      <trkpt lat="44.07072" lon="7.24348">
        <ele>1371</ele>
        <time>2017-01-08T15:06:12Z</time>
      </trkpt>
      <trkpt lat="44.07056" lon="7.24355">
        <ele>1362</ele>
        <time>2017-01-08T15:06:45Z</time>
      </trkpt>
      <trkpt lat="44.07052" lon="7.2438">
        <ele>1360</ele>
        <time>2017-01-08T15:07:11Z</time>
      </trkpt>
      <trkpt lat="44.07045" lon="7.24387">
        <ele>1355</ele>
        <time>2017-01-08T15:07:24Z</time>
      </trkpt>
      <trkpt lat="44.07042" lon="7.24401">
        <ele>1354</ele>
        <time>2017-01-08T15:07:35Z</time>
      </trkpt>
      <trkpt lat="44.07033" lon="7.24403">
        <ele>1348</ele>
        <time>2017-01-08T15:07:50Z</time>
      </trkpt>
      <trkpt lat="44.07028" lon="7.24393">
        <ele>1338</ele>
        <time>2017-01-08T15:08:21Z</time>
      </trkpt>
      <trkpt lat="44.07022" lon="7.24363">
        <ele>1333</ele>
        <time>2017-01-08T15:08:58Z</time>
      </trkpt>
      <trkpt lat="44.07019" lon="7.2435">
        <ele>1330</ele>
        <time>2017-01-08T15:09:06Z</time>
      </trkpt>
      <trkpt lat="44.07019" lon="7.24337">
        <ele>1329</ele>
        <time>2017-01-08T15:09:13Z</time>
      </trkpt>
      <trkpt lat="44.07018" lon="7.24324">
        <ele>1329</ele>
        <time>2017-01-08T15:09:19Z</time>
      </trkpt>
      <trkpt lat="44.07012" lon="7.24313">
        <ele>1329</ele>
        <time>2017-01-08T15:09:23Z</time>
      </trkpt>
      <trkpt lat="44.07004" lon="7.24303">
        <ele>1329</ele>
        <time>2017-01-08T15:09:28Z</time>
      </trkpt>
      <trkpt lat="44.06991" lon="7.24288">
        <ele>1330</ele>
        <time>2017-01-08T15:09:38Z</time>
      </trkpt>
      <trkpt lat="44.06985" lon="7.24279">
        <ele>1330</ele>
        <time>2017-01-08T15:09:51Z</time>
      </trkpt>
      <trkpt lat="44.06976" lon="7.24277">
        <ele>1330</ele>
        <time>2017-01-08T15:10:01Z</time>
      </trkpt>
      <trkpt lat="44.06967" lon="7.24272">
        <ele>1330</ele>
        <time>2017-01-08T15:10:10Z</time>
      </trkpt>
      <trkpt lat="44.06958" lon="7.24273">
        <ele>1330</ele>
        <time>2017-01-08T15:10:17Z</time>
      </trkpt>
      <trkpt lat="44.06924" lon="7.24305">
        <ele>1311</ele>
        <time>2017-01-08T15:11:37Z</time>
      </trkpt>
      <trkpt lat="44.06909" lon="7.24302">
        <ele>1305</ele>
        <time>2017-01-08T15:12:06Z</time>
      </trkpt>
      <trkpt lat="44.06904" lon="7.24313">
        <ele>1302</ele>
        <time>2017-01-08T15:12:13Z</time>
      </trkpt>
      <trkpt lat="44.06893" lon="7.24313">
        <ele>1298</ele>
        <time>2017-01-08T15:12:32Z</time>
      </trkpt>
      <trkpt lat="44.06884" lon="7.24317">
        <ele>1295</ele>
        <time>2017-01-08T15:12:50Z</time>
      </trkpt>
      <trkpt lat="44.06878" lon="7.24329">
        <ele>1294</ele>
        <time>2017-01-08T15:12:59Z</time>
      </trkpt>
      <trkpt lat="44.0686" lon="7.24332">
        <ele>1290</ele>
        <time>2017-01-08T15:13:27Z</time>
      </trkpt>
      <trkpt lat="44.06854" lon="7.24343">
        <ele>1287</ele>
        <time>2017-01-08T15:13:39Z</time>
      </trkpt>
      <trkpt lat="44.06839" lon="7.24358">
        <ele>1282</ele>
        <time>2017-01-08T15:13:56Z</time>
      </trkpt>
      <trkpt lat="44.06838" lon="7.24371">
        <ele>1282</ele>
        <time>2017-01-08T15:14:07Z</time>
      </trkpt>
      <trkpt lat="44.06832" lon="7.24389">
        <ele>1283</ele>
        <time>2017-01-08T15:14:50Z</time>
      </trkpt>
      <trkpt lat="44.06824" lon="7.24398">
        <ele>1284</ele>
        <time>2017-01-08T15:14:57Z</time>
      </trkpt>
      <trkpt lat="44.0682" lon="7.24412">
        <ele>1286</ele>
        <time>2017-01-08T15:15:02Z</time>
      </trkpt>
      <trkpt lat="44.06819" lon="7.24425">
        <ele>1288</ele>
        <time>2017-01-08T15:15:06Z</time>
      </trkpt>
      <trkpt lat="44.06813" lon="7.24451">
        <ele>1289</ele>
        <time>2017-01-08T15:15:19Z</time>
      </trkpt>
      <trkpt lat="44.06806" lon="7.24463">
        <ele>1289</ele>
        <time>2017-01-08T15:15:31Z</time>
      </trkpt>
      <trkpt lat="44.06796" lon="7.24486">
        <ele>1287</ele>
        <time>2017-01-08T15:15:42Z</time>
      </trkpt>
      <trkpt lat="44.06786" lon="7.24489">
        <ele>1286</ele>
        <time>2017-01-08T15:15:54Z</time>
      </trkpt>
      <trkpt lat="44.06784" lon="7.24503">
        <ele>1285</ele>
        <time>2017-01-08T15:16:05Z</time>
      </trkpt>
      <trkpt lat="44.06783" lon="7.24516">
        <ele>1282</ele>
        <time>2017-01-08T15:16:11Z</time>
      </trkpt>
      <trkpt lat="44.06786" lon="7.24544">
        <ele>1278</ele>
        <time>2017-01-08T15:16:27Z</time>
      </trkpt>
      <trkpt lat="44.06786" lon="7.24558">
        <ele>1277</ele>
        <time>2017-01-08T15:16:33Z</time>
      </trkpt>
      <trkpt lat="44.0678" lon="7.24569">
        <ele>1277</ele>
        <time>2017-01-08T15:16:38Z</time>
      </trkpt>
      <trkpt lat="44.06771" lon="7.24573">
        <ele>1277</ele>
        <time>2017-01-08T15:16:45Z</time>
      </trkpt>
      <trkpt lat="44.06765" lon="7.24585">
        <ele>1280</ele>
        <time>2017-01-08T15:17:20Z</time>
      </trkpt>
      <trkpt lat="44.06756" lon="7.24597">
        <ele>1281</ele>
        <time>2017-01-08T15:17:41Z</time>
      </trkpt>
      <trkpt lat="44.06747" lon="7.24607">
        <ele>1283</ele>
        <time>2017-01-08T15:18:11Z</time>
      </trkpt>
      <trkpt lat="44.06736" lon="7.246">
        <ele>1286</ele>
        <time>2017-01-08T15:18:42Z</time>
      </trkpt>
      <trkpt lat="44.06728" lon="7.24606">
        <ele>1285</ele>
        <time>2017-01-08T15:18:49Z</time>
      </trkpt>
      <trkpt lat="44.06725" lon="7.24618">
        <ele>1282</ele>
        <time>2017-01-08T15:18:55Z</time>
      </trkpt>
      <trkpt lat="44.06733" lon="7.24631">
        <ele>1265</ele>
        <time>2017-01-08T15:19:27Z</time>
      </trkpt>
      <trkpt lat="44.06725" lon="7.24641">
        <ele>1257</ele>
        <time>2017-01-08T15:19:43Z</time>
      </trkpt>
      <trkpt lat="44.06717" lon="7.24643">
        <ele>1255</ele>
        <time>2017-01-08T15:19:51Z</time>
      </trkpt>
      <trkpt lat="44.0671" lon="7.24654">
        <ele>1252</ele>
        <time>2017-01-08T15:20:01Z</time>
      </trkpt>
      <trkpt lat="44.06707" lon="7.24666">
        <ele>1248</ele>
        <time>2017-01-08T15:20:14Z</time>
      </trkpt>
      <trkpt lat="44.0671" lon="7.24678">
        <ele>1246</ele>
        <time>2017-01-08T15:20:25Z</time>
      </trkpt>
      <trkpt lat="44.06731" lon="7.24691">
        <ele>1238</ele>
        <time>2017-01-08T15:20:44Z</time>
      </trkpt>
      <trkpt lat="44.06715" lon="7.24696">
        <ele>1236</ele>
        <time>2017-01-08T15:21:16Z</time>
      </trkpt>
      <trkpt lat="44.06702" lon="7.24697">
        <ele>1233</ele>
        <time>2017-01-08T15:21:42Z</time>
      </trkpt>
      <trkpt lat="44.06693" lon="7.24704">
        <ele>1230</ele>
        <time>2017-01-08T15:21:50Z</time>
      </trkpt>
      <trkpt lat="44.06683" lon="7.24706">
        <ele>1227</ele>
        <time>2017-01-08T15:22:03Z</time>
      </trkpt>
      <trkpt lat="44.06675" lon="7.24714">
        <ele>1224</ele>
        <time>2017-01-08T15:22:10Z</time>
      </trkpt>
      <trkpt lat="44.06674" lon="7.2473">
        <ele>1204</ele>
        <time>2017-01-08T15:23:20Z</time>
      </trkpt>
      <trkpt lat="44.06665" lon="7.24727">
        <ele>1204</ele>
        <time>2017-01-08T15:23:36Z</time>
      </trkpt>
      <trkpt lat="44.0666" lon="7.24744">
        <ele>1195</ele>
        <time>2017-01-08T15:24:28Z</time>
      </trkpt>
      <trkpt lat="44.06665" lon="7.24755">
        <ele>1187</ele>
        <time>2017-01-08T15:24:41Z</time>
      </trkpt>
      <trkpt lat="44.06661" lon="7.24757">
        <ele>1167</ele>
        <time>2017-01-08T15:25:57Z</time>
      </trkpt>
      <trkpt lat="44.06666" lon="7.24767">
        <ele>1166</ele>
        <time>2017-01-08T15:26:09Z</time>
      </trkpt>
      <trkpt lat="44.06674" lon="7.24774">
        <ele>1165</ele>
        <time>2017-01-08T15:26:17Z</time>
      </trkpt>
      <trkpt lat="44.0667" lon="7.24786">
        <ele>1164</ele>
        <time>2017-01-08T15:26:49Z</time>
      </trkpt>
      <trkpt lat="44.06682" lon="7.248">
        <ele>1157</ele>
        <time>2017-01-08T15:27:52Z</time>
      </trkpt>
      <trkpt lat="44.06681" lon="7.24812">
        <ele>1156</ele>
        <time>2017-01-08T15:28:28Z</time>
      </trkpt>
      <trkpt lat="44.06674" lon="7.24821">
        <ele>1157</ele>
        <time>2017-01-08T15:28:50Z</time>
      </trkpt>
      <trkpt lat="44.06691" lon="7.24824">
        <ele>1156</ele>
        <time>2017-01-08T15:29:05Z</time>
      </trkpt>
      <trkpt lat="44.06682" lon="7.24831">
        <ele>1152</ele>
        <time>2017-01-08T15:29:39Z</time>
      </trkpt>
      <trkpt lat="44.06673" lon="7.24843">
        <ele>1147</ele>
        <time>2017-01-08T15:30:06Z</time>
      </trkpt>
      <trkpt lat="44.06662" lon="7.24854">
        <ele>1139</ele>
        <time>2017-01-08T15:30:50Z</time>
      </trkpt>
      <trkpt lat="44.06659" lon="7.24867">
        <ele>1130</ele>
        <time>2017-01-08T15:30:59Z</time>
      </trkpt>
      <trkpt lat="44.06661" lon="7.24868">
        <ele>1116</ele>
        <time>2017-01-08T15:31:47Z</time>
      </trkpt>
      <trkpt lat="44.06669" lon="7.2489">
        <ele>1106</ele>
        <time>2017-01-08T15:32:34Z</time>
      </trkpt>
      <trkpt lat="44.06663" lon="7.24904">
        <ele>1100</ele>
        <time>2017-01-08T15:33:06Z</time>
      </trkpt>
      <trkpt lat="44.06653" lon="7.24904">
        <ele>1099</ele>
        <time>2017-01-08T15:33:24Z</time>
      </trkpt>
      <trkpt lat="44.06644" lon="7.24902">
        <ele>1099</ele>
        <time>2017-01-08T15:33:32Z</time>
      </trkpt>
      <trkpt lat="44.06638" lon="7.24912">
        <ele>1098</ele>
        <time>2017-01-08T15:33:51Z</time>
      </trkpt>
      <trkpt lat="44.0664" lon="7.24925">
        <ele>1098</ele>
        <time>2017-01-08T15:33:54Z</time>
      </trkpt>
      <trkpt lat="44.06637" lon="7.24937">
        <ele>1098</ele>
        <time>2017-01-08T15:33:57Z</time>
      </trkpt>
      <trkpt lat="44.06633" lon="7.24952">
        <ele>1098</ele>
        <time>2017-01-08T15:34:14Z</time>
      </trkpt>
      <trkpt lat="44.06619" lon="7.24957">
        <ele>1094</ele>
        <time>2017-01-08T15:35:13Z</time>
      </trkpt>
      <trkpt lat="44.06625" lon="7.24957">
        <ele>1102</ele>
        <time>2017-01-08T15:36:27Z</time>
      </trkpt>
      <trkpt lat="44.06608" lon="7.24963">
        <ele>1102</ele>
        <time>2017-01-08T15:37:08Z</time>
      </trkpt>
      <trkpt lat="44.06599" lon="7.24967">
        <ele>1099</ele>
        <time>2017-01-08T15:37:17Z</time>
      </trkpt>
      <trkpt lat="44.06583" lon="7.24992">
        <ele>1092</ele>
        <time>2017-01-08T15:37:41Z</time>
      </trkpt>
      <trkpt lat="44.06571" lon="7.2501">
        <ele>1091</ele>
        <time>2017-01-08T15:37:49Z</time>
      </trkpt>
      <trkpt lat="44.0656" lon="7.25016">
        <ele>1089</ele>
        <time>2017-01-08T15:37:56Z</time>
      </trkpt>
      <trkpt lat="44.06562" lon="7.25042">
        <ele>1083</ele>
        <time>2017-01-08T15:38:23Z</time>
      </trkpt>
      <trkpt lat="44.0655" lon="7.25032">
        <ele>1076</ele>
        <time>2017-01-08T15:39:27Z</time>
      </trkpt>
      <trkpt lat="44.06539" lon="7.25032">
        <ele>1075</ele>
        <time>2017-01-08T15:39:42Z</time>
      </trkpt>
      <trkpt lat="44.06532" lon="7.2504">
        <ele>1074</ele>
        <time>2017-01-08T15:39:49Z</time>
      </trkpt>
      <trkpt lat="44.06539" lon="7.25048">
        <ele>1072</ele>
        <time>2017-01-08T15:39:59Z</time>
      </trkpt>
      <trkpt lat="44.06542" lon="7.25063">
        <ele>1069</ele>
        <time>2017-01-08T15:40:21Z</time>
      </trkpt>
      <trkpt lat="44.06547" lon="7.25076">
        <ele>1068</ele>
        <time>2017-01-08T15:40:30Z</time>
      </trkpt>
      <trkpt lat="44.06539" lon="7.25084">
        <ele>1067</ele>
        <time>2017-01-08T15:40:41Z</time>
      </trkpt>
      <trkpt lat="44.06531" lon="7.25092">
        <ele>1064</ele>
        <time>2017-01-08T15:40:51Z</time>
      </trkpt>
      <trkpt lat="44.06526" lon="7.25091">
        <ele>1052</ele>
        <time>2017-01-08T15:41:32Z</time>
      </trkpt>
      <trkpt lat="44.06521" lon="7.25102">
        <ele>1050</ele>
        <time>2017-01-08T15:41:40Z</time>
      </trkpt>
      <trkpt lat="44.06511" lon="7.25109">
        <ele>1045</ele>
        <time>2017-01-08T15:42:25Z</time>
      </trkpt>
      <trkpt lat="44.065" lon="7.25106">
        <ele>1034</ele>
        <time>2017-01-08T15:43:16Z</time>
      </trkpt>
      <trkpt lat="44.0649" lon="7.25113">
        <ele>1031</ele>
        <time>2017-01-08T15:43:29Z</time>
      </trkpt>
      <trkpt lat="44.06481" lon="7.25113">
        <ele>1028</ele>
        <time>2017-01-08T15:43:39Z</time>
      </trkpt>
      <trkpt lat="44.06472" lon="7.25111">
        <ele>1025</ele>
        <time>2017-01-08T15:43:45Z</time>
      </trkpt>
      <trkpt lat="44.06462" lon="7.25113">
        <ele>1021</ele>
        <time>2017-01-08T15:43:54Z</time>
      </trkpt>
      <trkpt lat="44.06453" lon="7.25108">
        <ele>1019</ele>
        <time>2017-01-08T15:44:02Z</time>
      </trkpt>
      <trkpt lat="44.06434" lon="7.25108">
        <ele>1016</ele>
        <time>2017-01-08T15:44:16Z</time>
      </trkpt>
      <trkpt lat="44.06421" lon="7.25111">
        <ele>1015</ele>
        <time>2017-01-08T15:44:20Z</time>
      </trkpt>
      <trkpt lat="44.06408" lon="7.25119">
        <ele>1015</ele>
        <time>2017-01-08T15:44:29Z</time>
      </trkpt>
      <trkpt lat="44.06397" lon="7.25124">
        <ele>1016</ele>
        <time>2017-01-08T15:44:42Z</time>
      </trkpt>
      <trkpt lat="44.06382" lon="7.25135">
        <ele>1015</ele>
        <time>2017-01-08T15:44:51Z</time>
      </trkpt>
      <trkpt lat="44.06374" lon="7.25142">
        <ele>1016</ele>
        <time>2017-01-08T15:45:03Z</time>
      </trkpt>
      <trkpt lat="44.06365" lon="7.25143">
        <ele>1016</ele>
        <time>2017-01-08T15:45:09Z</time>
      </trkpt>
      <trkpt lat="44.0634" lon="7.25161">
        <ele>1018</ele>
        <time>2017-01-08T15:45:35Z</time>
      </trkpt>
      <trkpt lat="44.06331" lon="7.25166">
        <ele>1019</ele>
        <time>2017-01-08T15:45:39Z</time>
      </trkpt>
      <trkpt lat="44.06316" lon="7.25163">
        <ele>1020</ele>
        <time>2017-01-08T15:45:57Z</time>
      </trkpt>
      <trkpt lat="44.06308" lon="7.25166">
        <ele>1025</ele>
        <time>2017-01-08T15:46:50Z</time>
      </trkpt>
      <trkpt lat="44.063" lon="7.25173">
        <ele>1027</ele>
        <time>2017-01-08T15:46:59Z</time>
      </trkpt>
      <trkpt lat="44.06291" lon="7.25176">
        <ele>1027</ele>
        <time>2017-01-08T15:47:11Z</time>
      </trkpt>
      <trkpt lat="44.06282" lon="7.25181">
        <ele>1025</ele>
        <time>2017-01-08T15:47:17Z</time>
      </trkpt>
      <trkpt lat="44.06273" lon="7.25175">
        <ele>1024</ele>
        <time>2017-01-08T15:47:31Z</time>
      </trkpt>
      <trkpt lat="44.06263" lon="7.25174">
        <ele>1024</ele>
        <time>2017-01-08T15:47:38Z</time>
      </trkpt>
      <trkpt lat="44.06253" lon="7.25177">
        <ele>1024</ele>
        <time>2017-01-08T15:47:46Z</time>
      </trkpt>
      <trkpt lat="44.0624" lon="7.25173">
        <ele>1020</ele>
        <time>2017-01-08T15:47:58Z</time>
      </trkpt>
      <trkpt lat="44.06235" lon="7.25169">
        <ele>1019</ele>
        <time>2017-01-08T15:48:02Z</time>
      </trkpt>
      <trkpt lat="44.06216" lon="7.2516">
        <ele>1016</ele>
        <time>2017-01-08T15:48:20Z</time>
      </trkpt>
      <trkpt lat="44.06212" lon="7.25156">
        <ele>1016</ele>
        <time>2017-01-08T15:48:24Z</time>
      </trkpt>
      <trkpt lat="44.06208" lon="7.25154">
        <ele>1017</ele>
        <time>2017-01-08T15:48:28Z</time>
      </trkpt>
      <trkpt lat="44.06204" lon="7.25149">
        <ele>1017</ele>
        <time>2017-01-08T15:48:34Z</time>
      </trkpt>
      <trkpt lat="44.062" lon="7.25144">
        <ele>1017</ele>
        <time>2017-01-08T15:48:38Z</time>
      </trkpt>
      <trkpt lat="44.06196" lon="7.25139">
        <ele>1017</ele>
        <time>2017-01-08T15:48:43Z</time>
      </trkpt>
      <trkpt lat="44.06189" lon="7.25129">
        <ele>1018</ele>
        <time>2017-01-08T15:48:52Z</time>
      </trkpt>
      <trkpt lat="44.0618" lon="7.25112">
        <ele>1017</ele>
        <time>2017-01-08T15:49:04Z</time>
      </trkpt>
      <trkpt lat="44.06178" lon="7.25105">
        <ele>1017</ele>
        <time>2017-01-08T15:49:08Z</time>
      </trkpt>
      <trkpt lat="44.06168" lon="7.25071">
        <ele>1020</ele>
        <time>2017-01-08T15:49:33Z</time>
      </trkpt>
      <trkpt lat="44.06161" lon="7.25034">
        <ele>1020</ele>
        <time>2017-01-08T15:50:02Z</time>
      </trkpt>
      <trkpt lat="44.06151" lon="7.24982">
        <ele>1025</ele>
        <time>2017-01-08T15:50:31Z</time>
      </trkpt>
      <trkpt lat="44.06145" lon="7.24971">
        <ele>1025</ele>
        <time>2017-01-08T15:50:40Z</time>
      </trkpt>
      <trkpt lat="44.06138" lon="7.2496">
        <ele>1022</ele>
        <time>2017-01-08T15:50:58Z</time>
      </trkpt>
      <trkpt lat="44.06129" lon="7.24957">
        <ele>1022</ele>
        <time>2017-01-08T15:51:04Z</time>
      </trkpt>
      <trkpt lat="44.06111" lon="7.24949">
        <ele>1025</ele>
        <time>2017-01-08T15:51:18Z</time>
      </trkpt>
      <trkpt lat="44.06103" lon="7.24941">
        <ele>1026</ele>
        <time>2017-01-08T15:51:26Z</time>
      </trkpt>
      <trkpt lat="44.06095" lon="7.24923">
        <ele>1032</ele>
        <time>2017-01-08T15:51:59Z</time>
      </trkpt>
      <trkpt lat="44.06086" lon="7.24916">
        <ele>1034</ele>
        <time>2017-01-08T15:52:09Z</time>
      </trkpt>
      <trkpt lat="44.06073" lon="7.24897">
        <ele>1039</ele>
        <time>2017-01-08T15:52:23Z</time>
      </trkpt>
      <trkpt lat="44.0607" lon="7.24884">
        <ele>1040</ele>
        <time>2017-01-08T15:52:32Z</time>
      </trkpt>
      <trkpt lat="44.06066" lon="7.24845">
        <ele>1041</ele>
        <time>2017-01-08T15:52:54Z</time>
      </trkpt>
      <trkpt lat="44.06065" lon="7.24832">
        <ele>1040</ele>
        <time>2017-01-08T15:53:03Z</time>
      </trkpt>
      <trkpt lat="44.06061" lon="7.24819">
        <ele>1039</ele>
        <time>2017-01-08T15:53:12Z</time>
      </trkpt>
      <trkpt lat="44.06038" lon="7.24775">
        <ele>1039</ele>
        <time>2017-01-08T15:53:46Z</time>
      </trkpt>
      <trkpt lat="44.06039" lon="7.24762">
        <ele>1040</ele>
        <time>2017-01-08T15:53:51Z</time>
      </trkpt>
      <trkpt lat="44.0603" lon="7.24756">
        <ele>1041</ele>
        <time>2017-01-08T15:54:02Z</time>
      </trkpt>
      <trkpt lat="44.06021" lon="7.24756">
        <ele>1041</ele>
        <time>2017-01-08T15:54:09Z</time>
      </trkpt>
      <trkpt lat="44.06012" lon="7.2476">
        <ele>1042</ele>
        <time>2017-01-08T15:54:19Z</time>
      </trkpt>
      <trkpt lat="44.06005" lon="7.24769">
        <ele>1043</ele>
        <time>2017-01-08T15:54:29Z</time>
      </trkpt>
      <trkpt lat="44.06" lon="7.24781">
        <ele>1044</ele>
        <time>2017-01-08T15:54:36Z</time>
      </trkpt>
      <trkpt lat="44.06004" lon="7.24794">
        <ele>1044</ele>
        <time>2017-01-08T15:54:47Z</time>
      </trkpt>
      <trkpt lat="44.06001" lon="7.24807">
        <ele>1045</ele>
        <time>2017-01-08T15:54:54Z</time>
      </trkpt>
      <trkpt lat="44.05994" lon="7.24815">
        <ele>1046</ele>
        <time>2017-01-08T15:54:59Z</time>
      </trkpt>
      <trkpt lat="44.05996" lon="7.24828">
        <ele>1045</ele>
        <time>2017-01-08T15:55:08Z</time>
      </trkpt>
      <trkpt lat="44.05989" lon="7.24839">
        <ele>1045</ele>
        <time>2017-01-08T15:55:15Z</time>
      </trkpt>
      <trkpt lat="44.05988" lon="7.24852">
        <ele>1046</ele>
        <time>2017-01-08T15:55:22Z</time>
      </trkpt>
      <trkpt lat="44.05991" lon="7.24863">
        <ele>1047</ele>
        <time>2017-01-08T15:55:30Z</time>
      </trkpt>
      <trkpt lat="44.05991" lon="7.24878">
        <ele>1049</ele>
        <time>2017-01-08T15:55:39Z</time>
      </trkpt>
      <trkpt lat="44.05991" lon="7.2489">
        <ele>1049</ele>
        <time>2017-01-08T15:55:47Z</time>
      </trkpt>
      <trkpt lat="44.05992" lon="7.24903">
        <ele>1050</ele>
        <time>2017-01-08T15:55:55Z</time>
      </trkpt>
      <trkpt lat="44.0599" lon="7.24917">
        <ele>1051</ele>
        <time>2017-01-08T15:56:04Z</time>
      </trkpt>
      <trkpt lat="44.05984" lon="7.24927">
        <ele>1053</ele>
        <time>2017-01-08T15:56:14Z</time>
      </trkpt>
      <trkpt lat="44.05989" lon="7.2494">
        <ele>1054</ele>
        <time>2017-01-08T15:56:22Z</time>
      </trkpt>
      <trkpt lat="44.05987" lon="7.24954">
        <ele>1056</ele>
        <time>2017-01-08T15:56:29Z</time>
      </trkpt>
      <trkpt lat="44.05991" lon="7.24989">
        <ele>1059</ele>
        <time>2017-01-08T15:56:50Z</time>
      </trkpt>
      <trkpt lat="44.05984" lon="7.24999">
        <ele>1062</ele>
        <time>2017-01-08T15:56:55Z</time>
      </trkpt>
      <trkpt lat="44.05989" lon="7.25011">
        <ele>1064</ele>
        <time>2017-01-08T15:57:06Z</time>
      </trkpt>
      <trkpt lat="44.05987" lon="7.25024">
        <ele>1065</ele>
        <time>2017-01-08T15:57:17Z</time>
      </trkpt>
      <trkpt lat="44.05991" lon="7.25035">
        <ele>1066</ele>
        <time>2017-01-08T15:57:27Z</time>
      </trkpt>
      <trkpt lat="44.0599" lon="7.25061">
        <ele>1067</ele>
        <time>2017-01-08T15:57:41Z</time>
      </trkpt>
      <trkpt lat="44.05987" lon="7.25078">
        <ele>1068</ele>
        <time>2017-01-08T15:57:53Z</time>
      </trkpt>
      <trkpt lat="44.05987" lon="7.25094">
        <ele>1068</ele>
        <time>2017-01-08T15:58:03Z</time>
      </trkpt>
      <trkpt lat="44.0598" lon="7.25104">
        <ele>1069</ele>
        <time>2017-01-08T15:58:09Z</time>
      </trkpt>
      <trkpt lat="44.05971" lon="7.25115">
        <ele>1068</ele>
        <time>2017-01-08T15:58:14Z</time>
      </trkpt>
      <trkpt lat="44.05953" lon="7.25134">
        <ele>1066</ele>
        <time>2017-01-08T15:58:25Z</time>
      </trkpt>
      <trkpt lat="44.05953" lon="7.25147">
        <ele>1064</ele>
        <time>2017-01-08T15:58:32Z</time>
      </trkpt>
      <trkpt lat="44.05944" lon="7.25144">
        <ele>1063</ele>
        <time>2017-01-08T15:58:42Z</time>
      </trkpt>
      <trkpt lat="44.05951" lon="7.25126">
        <ele>1062</ele>
        <time>2017-01-08T16:00:16Z</time>
      </trkpt>
      <trkpt lat="44.05953" lon="7.25112">
        <ele>1063</ele>
        <time>2017-01-08T16:00:23Z</time>
      </trkpt>
      <trkpt lat="44.05947" lon="7.251">
        <ele>1064</ele>
        <time>2017-01-08T16:00:32Z</time>
      </trkpt>
      <trkpt lat="44.05942" lon="7.25089">
        <ele>1063</ele>
        <time>2017-01-08T16:00:41Z</time>
      </trkpt>
      <trkpt lat="44.0593" lon="7.25115">
        <ele>1065</ele>
        <time>2017-01-08T16:01:09Z</time>
      </trkpt>
      <trkpt lat="44.05921" lon="7.25118">
        <ele>1067</ele>
        <time>2017-01-08T16:01:18Z</time>
      </trkpt>
      <trkpt lat="44.05916" lon="7.25107">
        <ele>1069</ele>
        <time>2017-01-08T16:01:35Z</time>
      </trkpt>
      <trkpt lat="44.05916" lon="7.25093">
        <ele>1072</ele>
        <time>2017-01-08T16:01:49Z</time>
      </trkpt>
      <trkpt lat="44.05919" lon="7.25081">
        <ele>1073</ele>
        <time>2017-01-08T16:01:58Z</time>
      </trkpt>
      <trkpt lat="44.05915" lon="7.25068">
        <ele>1074</ele>
        <time>2017-01-08T16:02:09Z</time>
      </trkpt>
      <trkpt lat="44.05907" lon="7.25062">
        <ele>1074</ele>
        <time>2017-01-08T16:02:14Z</time>
      </trkpt>
      <trkpt lat="44.05909" lon="7.25049">
        <ele>1075</ele>
        <time>2017-01-08T16:02:22Z</time>
      </trkpt>
      <trkpt lat="44.05916" lon="7.25041">
        <ele>1077</ele>
        <time>2017-01-08T16:02:30Z</time>
      </trkpt>
      <trkpt lat="44.0592" lon="7.25029">
        <ele>1078</ele>
        <time>2017-01-08T16:02:37Z</time>
      </trkpt>
      <trkpt lat="44.05915" lon="7.25019">
        <ele>1079</ele>
        <time>2017-01-08T16:02:48Z</time>
      </trkpt>
      <trkpt lat="44.05905" lon="7.25037">
        <ele>1081</ele>
        <time>2017-01-08T16:03:17Z</time>
      </trkpt>
      <trkpt lat="44.05888" lon="7.25051">
        <ele>1083</ele>
        <time>2017-01-08T16:03:26Z</time>
      </trkpt>
      <trkpt lat="44.05884" lon="7.25063">
        <ele>1084</ele>
        <time>2017-01-08T16:03:33Z</time>
      </trkpt>
      <trkpt lat="44.05878" lon="7.25073">
        <ele>1085</ele>
        <time>2017-01-08T16:03:41Z</time>
      </trkpt>
      <trkpt lat="44.05869" lon="7.25079">
        <ele>1085</ele>
        <time>2017-01-08T16:03:46Z</time>
      </trkpt>
      <trkpt lat="44.05868" lon="7.2509">
        <ele>1096</ele>
        <time>2017-01-08T16:04:16Z</time>
      </trkpt>
      <trkpt lat="44.05868" lon="7.25097">
        <ele>1098</ele>
        <time>2017-01-08T16:04:23Z</time>
      </trkpt>
      <trkpt lat="44.05868" lon="7.25099">
        <ele>1111</ele>
        <time>2017-01-08T16:06:29Z</time>
      </trkpt>
      <trkpt lat="44.05866" lon="7.25101">
        <ele>1113</ele>
        <time>2017-01-08T16:08:06Z</time>
      </trkpt>
      <trkpt lat="44.0585" lon="7.25099">
        <ele>1113</ele>
        <time>2017-01-08T16:08:32Z</time>
      </trkpt>
      <trkpt lat="44.0584" lon="7.25104">
        <ele>1113</ele>
        <time>2017-01-08T16:08:47Z</time>
      </trkpt>
      <trkpt lat="44.0583" lon="7.25106">
        <ele>1115</ele>
        <time>2017-01-08T16:08:56Z</time>
      </trkpt>
      <trkpt lat="44.05824" lon="7.25097">
        <ele>1115</ele>
        <time>2017-01-08T16:09:07Z</time>
      </trkpt>
      <trkpt lat="44.05816" lon="7.25091">
        <ele>1116</ele>
        <time>2017-01-08T16:09:16Z</time>
      </trkpt>
      <trkpt lat="44.05807" lon="7.25089">
        <ele>1116</ele>
        <time>2017-01-08T16:09:26Z</time>
      </trkpt>
      <trkpt lat="44.05797" lon="7.25089">
        <ele>1116</ele>
        <time>2017-01-08T16:09:35Z</time>
      </trkpt>
      <trkpt lat="44.05788" lon="7.25087">
        <ele>1118</ele>
        <time>2017-01-08T16:09:46Z</time>
      </trkpt>
      <trkpt lat="44.05777" lon="7.25091">
        <ele>1127</ele>
        <time>2017-01-08T16:10:49Z</time>
      </trkpt>
      <trkpt lat="44.0577" lon="7.25099">
        <ele>1127</ele>
        <time>2017-01-08T16:10:56Z</time>
      </trkpt>
      <trkpt lat="44.0575" lon="7.25107">
        <ele>1131</ele>
        <time>2017-01-08T16:11:09Z</time>
      </trkpt>
      <trkpt lat="44.05742" lon="7.25114">
        <ele>1131</ele>
        <time>2017-01-08T16:11:22Z</time>
      </trkpt>
      <trkpt lat="44.05732" lon="7.25116">
        <ele>1131</ele>
        <time>2017-01-08T16:11:29Z</time>
      </trkpt>
      <trkpt lat="44.05712" lon="7.25121">
        <ele>1136</ele>
        <time>2017-01-08T16:11:44Z</time>
      </trkpt>
      <trkpt lat="44.05702" lon="7.25124">
        <ele>1136</ele>
        <time>2017-01-08T16:11:54Z</time>
      </trkpt>
      <trkpt lat="44.05693" lon="7.25125">
        <ele>1136</ele>
        <time>2017-01-08T16:12:06Z</time>
      </trkpt>
      <trkpt lat="44.05675" lon="7.25136">
        <ele>1136</ele>
        <time>2017-01-08T16:12:20Z</time>
      </trkpt>
      <trkpt lat="44.05668" lon="7.25145">
        <ele>1136</ele>
        <time>2017-01-08T16:12:28Z</time>
      </trkpt>
      <trkpt lat="44.05653" lon="7.25162">
        <ele>1138</ele>
        <time>2017-01-08T16:12:43Z</time>
      </trkpt>
      <trkpt lat="44.05647" lon="7.25173">
        <ele>1139</ele>
        <time>2017-01-08T16:12:51Z</time>
      </trkpt>
      <trkpt lat="44.05638" lon="7.25179">
        <ele>1140</ele>
        <time>2017-01-08T16:13:01Z</time>
      </trkpt>
      <trkpt lat="44.05629" lon="7.25183">
        <ele>1141</ele>
        <time>2017-01-08T16:13:11Z</time>
      </trkpt>
      <trkpt lat="44.0561" lon="7.2518">
        <ele>1146</ele>
        <time>2017-01-08T16:13:30Z</time>
      </trkpt>
      <trkpt lat="44.05605" lon="7.25179">
        <ele>1146</ele>
        <time>2017-01-08T16:14:18Z</time>
      </trkpt>
      <trkpt lat="44.056" lon="7.25177">
        <ele>1146</ele>
        <time>2017-01-08T16:14:23Z</time>
      </trkpt>
      <trkpt lat="44.0557" lon="7.25171">
        <ele>1151</ele>
        <time>2017-01-08T16:14:47Z</time>
      </trkpt>
      <trkpt lat="44.05551" lon="7.25176">
        <ele>1154</ele>
        <time>2017-01-08T16:15:04Z</time>
      </trkpt>
      <trkpt lat="44.05541" lon="7.25174">
        <ele>1156</ele>
        <time>2017-01-08T16:15:14Z</time>
      </trkpt>
      <trkpt lat="44.05536" lon="7.25176">
        <ele>1156</ele>
        <time>2017-01-08T16:15:18Z</time>
      </trkpt>
      <trkpt lat="44.05527" lon="7.2518">
        <ele>1157</ele>
        <time>2017-01-08T16:15:28Z</time>
      </trkpt>
      <trkpt lat="44.05521" lon="7.25189">
        <ele>1156</ele>
        <time>2017-01-08T16:15:37Z</time>
      </trkpt>
      <trkpt lat="44.05499" lon="7.25232">
        <ele>1152</ele>
        <time>2017-01-08T16:16:11Z</time>
      </trkpt>
      <trkpt lat="44.05493" lon="7.25243">
        <ele>1152</ele>
        <time>2017-01-08T16:16:18Z</time>
      </trkpt>
      <trkpt lat="44.05484" lon="7.25252">
        <ele>1151</ele>
        <time>2017-01-08T16:16:27Z</time>
      </trkpt>
      <trkpt lat="44.05476" lon="7.25259">
        <ele>1150</ele>
        <time>2017-01-08T16:16:40Z</time>
      </trkpt>
      <trkpt lat="44.05456" lon="7.25261">
        <ele>1151</ele>
        <time>2017-01-08T16:16:57Z</time>
      </trkpt>
      <trkpt lat="44.05446" lon="7.25259">
        <ele>1152</ele>
        <time>2017-01-08T16:17:07Z</time>
      </trkpt>
      <trkpt lat="44.05437" lon="7.25266">
        <ele>1153</ele>
        <time>2017-01-08T16:17:14Z</time>
      </trkpt>
      <trkpt lat="44.05427" lon="7.25268">
        <ele>1154</ele>
        <time>2017-01-08T16:17:22Z</time>
      </trkpt>
      <trkpt lat="44.05418" lon="7.25272">
        <ele>1155</ele>
        <time>2017-01-08T16:17:31Z</time>
      </trkpt>
      <trkpt lat="44.05389" lon="7.2528">
        <ele>1163</ele>
        <time>2017-01-08T16:18:00Z</time>
      </trkpt>
      <trkpt lat="44.05371" lon="7.25286">
        <ele>1163</ele>
        <time>2017-01-08T16:18:17Z</time>
      </trkpt>
      <trkpt lat="44.05361" lon="7.25284">
        <ele>1165</ele>
        <time>2017-01-08T16:18:25Z</time>
      </trkpt>
      <trkpt lat="44.05358" lon="7.25272">
        <ele>1168</ele>
        <time>2017-01-08T16:18:35Z</time>
      </trkpt>
    </trkseg>
  </trk>
</gpx>